
Distance (Route):
Temperature : 0°C
Humidity : 0%
Pressure : 0hPa| Receiver | Frames | First received | Last received |
|---|---|---|---|
| EA3GEO | 762 | 2026-09-02 11:01:13 | 2026-09-02 12:29:58 |
| Receiver | Date | Latitude | Longitude | Direction | Speed | Altitude | Climb | Temperature | Humidity | Pressure | Voltage | Killtimer | Uptime | BKT | XDATA |
|---|---|---|---|---|---|---|---|---|---|---|---|---|---|---|---|
| EA3GEO | 2026-09-02 12:29:58 | 41.09850 | 2.46943 | 321° | 7km/h | 118m | -7.3m/s | 0°C | 0% | 0hPa | 0V | 00:00:00 | 00:00:00 | 00:00:00 | |
| EA3GEO | 2026-09-02 12:29:52 | 41.09838 | 2.46954 | 331° | 11km/h | 157m | -5.6m/s | 0°C | 0% | 0hPa | 0V | 00:00:00 | 00:00:00 | 00:00:00 | |
| EA3GEO | 2026-09-02 12:29:46 | 41.09826 | 2.46968 | 314° | 11km/h | 201m | -7.5m/s | 0°C | 0% | 0hPa | 0V | 00:00:00 | 00:00:00 | 00:00:00 | |
| EA3GEO | 2026-09-02 12:29:41 | 41.09817 | 2.46977 | 310° | 9km/h | 245m | -6.3m/s | 0°C | 0% | 0hPa | 0V | 00:00:00 | 00:00:00 | 00:00:00 | |
| EA3GEO | 2026-09-02 12:29:35 | 41.09808 | 2.46989 | 314° | 13km/h | 284m | -9.4m/s | 0°C | 0% | 0hPa | 0V | 00:00:00 | 00:00:00 | 00:00:00 | |
| EA3GEO | 2026-09-02 12:29:29 | 41.09799 | 2.47007 | 292° | 15km/h | 335m | -10.4m/s | 0°C | 0% | 0hPa | 0V | 00:00:00 | 00:00:00 | 00:00:00 | |
| EA3GEO | 2026-09-02 12:29:23 | 41.09789 | 2.47029 | 305° | 15km/h | 389m | -8.9m/s | 0°C | 0% | 0hPa | 0V | 00:00:00 | 00:00:00 | 00:00:00 | |
| EA3GEO | 2026-09-02 12:29:17 | 41.09775 | 2.47055 | 297° | 15km/h | 448m | -7.3m/s | 0°C | 0% | 0hPa | 0V | 00:00:00 | 00:00:00 | 00:00:00 | |
| EA3GEO | 2026-09-02 12:29:11 | 41.09761 | 2.47088 | 301° | 20km/h | 501m | -4.1m/s | 0°C | 0% | 0hPa | 0V | 00:00:00 | 00:00:00 | 00:00:00 | |
| EA3GEO | 2026-09-02 12:29:05 | 41.09753 | 2.47124 | 272° | 18km/h | 546m | -5.0m/s | 0°C | 0% | 0hPa | 0V | 00:00:00 | 00:00:00 | 00:00:00 | |
| EA3GEO | 2026-09-02 12:29:00 | 41.09747 | 2.47156 | 279° | 18km/h | 584m | -7.0m/s | 0°C | 0% | 0hPa | 0V | 00:00:00 | 00:00:00 | 00:00:00 | |
| EA3GEO | 2026-09-02 12:28:54 | 41.09741 | 2.47191 | 290° | 16km/h | 633m | -7.5m/s | 0°C | 0% | 0hPa | 0V | 00:00:00 | 00:00:00 | 00:00:00 | |
| EA3GEO | 2026-09-02 12:28:49 | 41.09735 | 2.47217 | 276° | 16km/h | 668m | -8.4m/s | 0°C | 0% | 0hPa | 0V | 00:00:00 | 00:00:00 | 00:00:00 | |
| EA3GEO | 2026-09-02 12:28:43 | 41.09732 | 2.47246 | 284° | 16km/h | 714m | -6.9m/s | 0°C | 0% | 0hPa | 0V | 00:00:00 | 00:00:00 | 00:00:00 | |
| EA3GEO | 2026-09-02 12:28:37 | 41.09727 | 2.47276 | 286° | 15km/h | 758m | -5.8m/s | 0°C | 0% | 0hPa | 0V | 00:00:00 | 00:00:00 | 00:00:00 | |
| EA3GEO | 2026-09-02 12:28:31 | 41.09723 | 2.47310 | 290° | 18km/h | 800m | -5.9m/s | 0°C | 0% | 0hPa | 0V | 00:00:00 | 00:00:00 | 00:00:00 | |
| EA3GEO | 2026-09-02 12:28:25 | 41.09718 | 2.47343 | 285° | 15km/h | 846m | -6.9m/s | 0°C | 0% | 0hPa | 0V | 00:00:00 | 00:00:00 | 00:00:00 | |
| EA3GEO | 2026-09-02 12:28:20 | 41.09711 | 2.47370 | 300° | 18km/h | 888m | -7.5m/s | 0°C | 0% | 0hPa | 0V | 00:00:00 | 00:00:00 | 00:00:00 | |
| EA3GEO | 2026-09-02 12:28:14 | 41.09701 | 2.47402 | 295° | 18km/h | 937m | -8.4m/s | 0°C | 0% | 0hPa | 0V | 00:00:00 | 00:00:00 | 00:00:00 | |
| EA3GEO | 2026-09-02 12:28:08 | 41.09691 | 2.47434 | 298° | 15km/h | 985m | -6.0m/s | 0°C | 0% | 0hPa | 0V | 00:00:00 | 00:00:00 | 00:00:00 | |
| EA3GEO | 2026-09-02 12:28:02 | 41.09678 | 2.47460 | 310° | 13km/h | 1032m | -9.3m/s | 0°C | 0% | 0hPa | 0V | 00:00:00 | 00:00:00 | 00:00:00 | |
| EA3GEO | 2026-09-02 12:27:56 | 41.09668 | 2.47476 | 313° | 11km/h | 1082m | -7.9m/s | 0°C | 0% | 0hPa | 0V | 00:00:00 | 00:00:00 | 00:00:00 | |
| EA3GEO | 2026-09-02 12:27:51 | 41.09658 | 2.47485 | 347° | 9km/h | 1123m | -6.9m/s | 0°C | 0% | 0hPa | 0V | 00:00:00 | 00:00:00 | 00:00:00 | |
| EA3GEO | 2026-09-02 12:27:45 | 41.09648 | 2.47489 | 12° | 4km/h | 1173m | -7.0m/s | 0°C | 0% | 0hPa | 0V | 00:00:00 | 00:00:00 | 00:00:00 | |
| EA3GEO | 2026-09-02 12:27:39 | 41.09640 | 2.47486 | 20° | 4km/h | 1221m | -6.3m/s | 0°C | 0% | 0hPa | 0V | 00:00:00 | 00:00:00 | 00:00:00 | |
| EA3GEO | 2026-09-02 12:27:34 | 41.09638 | 2.47484 | 321° | 4km/h | 1260m | -8.4m/s | 0°C | 0% | 0hPa | 0V | 00:00:00 | 00:00:00 | 00:00:00 | |
| EA3GEO | 2026-09-02 12:27:28 | 41.09638 | 2.47475 | 104° | 7km/h | 1308m | -5.2m/s | 0°C | 0% | 0hPa | 0V | 00:00:00 | 00:00:00 | 00:00:00 | |
| EA3GEO | 2026-09-02 12:27:23 | 41.09642 | 2.47462 | 127° | 11km/h | 1345m | -6.9m/s | 0°C | 0% | 0hPa | 0V | 00:00:00 | 00:00:00 | 00:00:00 | |
| EA3GEO | 2026-09-02 12:27:18 | 41.09653 | 2.47445 | 109° | 13km/h | 1383m | -9.3m/s | 0°C | 0% | 0hPa | 0V | 00:00:00 | 00:00:00 | 00:00:00 | |
| EA3GEO | 2026-09-02 12:27:12 | 41.09663 | 2.47419 | 120° | 18km/h | 1437m | -6.2m/s | 0°C | 0% | 0hPa | 0V | 00:00:00 | 00:00:00 | 00:00:00 | |
| EA3GEO | 2026-09-02 12:27:06 | 41.09674 | 2.47384 | 110° | 18km/h | 1484m | -6.5m/s | 0°C | 0% | 0hPa | 0V | 00:00:00 | 00:00:00 | 00:00:00 | |
| EA3GEO | 2026-09-02 12:27:01 | 41.09680 | 2.47352 | 99° | 22km/h | 1526m | -9.0m/s | 0°C | 0% | 0hPa | 0V | 00:00:00 | 00:00:00 | 00:00:00 | |
| EA3GEO | 2026-09-02 12:26:56 | 41.09682 | 2.47321 | 91° | 20km/h | 1576m | -5.7m/s | 0°C | 0% | 0hPa | 0V | 00:00:00 | 00:00:00 | 00:00:00 | |
| EA3GEO | 2026-09-02 12:26:50 | 41.09681 | 2.47283 | 94° | 20km/h | 1623m | -9.0m/s | 0°C | 0% | 0hPa | 0V | 00:00:00 | 00:00:00 | 00:00:00 | |
| EA3GEO | 2026-09-02 12:26:44 | 41.09684 | 2.47245 | 95° | 16km/h | 1669m | -9.1m/s | 0°C | 0% | 0hPa | 0V | 00:00:00 | 00:00:00 | 00:00:00 | |
| EA3GEO | 2026-09-02 12:26:39 | 41.09684 | 2.47221 | 95° | 16km/h | 1712m | -8.1m/s | 0°C | 0% | 0hPa | 0V | 00:00:00 | 00:00:00 | 00:00:00 | |
| EA3GEO | 2026-09-02 12:26:33 | 41.09686 | 2.47192 | 80° | 16km/h | 1762m | -10.2m/s | 0°C | 0% | 0hPa | 0V | 00:00:00 | 00:00:00 | 00:00:00 | |
| EA3GEO | 2026-09-02 12:26:27 | 41.09686 | 2.47162 | 73° | 13km/h | 1815m | -7.6m/s | 0°C | 0% | 0hPa | 0V | 00:00:00 | 00:00:00 | 00:00:00 | |
| EA3GEO | 2026-09-02 12:26:22 | 41.09686 | 2.47138 | 51° | 13km/h | 1860m | -11.3m/s | 0°C | 0% | 0hPa | 0V | 00:00:00 | 00:00:00 | 00:00:00 | |
| EA3GEO | 2026-09-02 12:26:16 | 41.09686 | 2.47109 | 95° | 18km/h | 1916m | -8.4m/s | 0°C | 0% | 0hPa | 0V | 00:00:00 | 00:00:00 | 00:00:00 | |
| EA3GEO | 2026-09-02 12:26:10 | 41.09690 | 2.47076 | 87° | 18km/h | 1971m | -8.6m/s | 0°C | 0% | 0hPa | 0V | 00:00:00 | 00:00:00 | 00:00:00 | |
| EA3GEO | 2026-09-02 12:26:04 | 41.09694 | 2.47039 | 90° | 20km/h | 2019m | -8.6m/s | 0°C | 0% | 0hPa | 0V | 00:00:00 | 00:00:00 | 00:00:00 | |
| EA3GEO | 2026-09-02 12:25:58 | 41.09694 | 2.47000 | 99° | 20km/h | 2071m | -8.4m/s | 0°C | 0% | 0hPa | 0V | 00:00:00 | 00:00:00 | 00:00:00 | |
| EA3GEO | 2026-09-02 12:25:52 | 41.09695 | 2.46962 | 95° | 22km/h | 2124m | -6.6m/s | 0°C | 0% | 0hPa | 0V | 00:00:00 | 00:00:00 | 00:00:00 | |
| EA3GEO | 2026-09-02 12:25:46 | 41.09695 | 2.46920 | 90° | 20km/h | 2175m | -6.9m/s | 0°C | 0% | 0hPa | 0V | 00:00:00 | 00:00:00 | 00:00:00 | |
| EA3GEO | 2026-09-02 12:25:40 | 41.09695 | 2.46879 | 103° | 22km/h | 2222m | -5.1m/s | 0°C | 0% | 0hPa | 0V | 00:00:00 | 00:00:00 | 00:00:00 | |
| EA3GEO | 2026-09-02 12:25:35 | 41.09696 | 2.46841 | 97° | 22km/h | 2260m | -7.7m/s | 0°C | 0% | 0hPa | 0V | 00:00:00 | 00:00:00 | 00:00:00 | |
| EA3GEO | 2026-09-02 12:25:29 | 41.09702 | 2.46797 | 109° | 27km/h | 2309m | -8.7m/s | 0°C | 0% | 0hPa | 0V | 00:00:00 | 00:00:00 | 00:00:00 | |
| EA3GEO | 2026-09-02 12:25:24 | 41.09710 | 2.46758 | 103° | 26km/h | 2349m | -8.4m/s | 0°C | 0% | 0hPa | 0V | 00:00:00 | 00:00:00 | 00:00:00 | |
| EA3GEO | 2026-09-02 12:25:18 | 41.09722 | 2.46709 | 102° | 24km/h | 2400m | -7.9m/s | 0°C | 0% | 0hPa | 0V | 00:00:00 | 00:00:00 | 00:00:00 | |
| EA3GEO | 2026-09-02 12:25:12 | 41.09733 | 2.46660 | 110° | 24km/h | 2451m | -5.8m/s | 0°C | 0% | 0hPa | 0V | 00:00:00 | 00:00:00 | 00:00:00 | |
| EA3GEO | 2026-09-02 12:25:07 | 41.09744 | 2.46619 | 115° | 26km/h | 2494m | -8.8m/s | 0°C | 0% | 0hPa | 0V | 00:00:00 | 00:00:00 | 00:00:00 | |
| EA3GEO | 2026-09-02 12:25:01 | 41.09758 | 2.46571 | 111° | 27km/h | 2548m | -4.7m/s | 0°C | 0% | 0hPa | 0V | 00:00:00 | 00:00:00 | 00:00:00 | |
| EA3GEO | 2026-09-02 12:24:57 | 41.09769 | 2.46532 | 109° | 26km/h | 2585m | -6.7m/s | 0°C | 0% | 0hPa | 0V | 00:00:00 | 00:00:00 | 00:00:00 | |
| EA3GEO | 2026-09-02 12:24:51 | 41.09779 | 2.46490 | 111° | 29km/h | 2622m | -6.9m/s | 0°C | 0% | 0hPa | 0V | 00:00:00 | 00:00:00 | 00:00:00 | |
| EA3GEO | 2026-09-02 12:24:44 | 41.09796 | 2.46431 | 110° | 33km/h | 2683m | -7.6m/s | 0°C | 0% | 0hPa | 0V | 00:00:00 | 00:00:00 | 00:00:00 | |
| EA3GEO | 2026-09-02 12:24:38 | 41.09814 | 2.46372 | 114° | 33km/h | 2730m | -7.1m/s | 0°C | 0% | 0hPa | 0V | 00:00:00 | 00:00:00 | 00:00:00 | |
| EA3GEO | 2026-09-02 12:24:31 | 41.09834 | 2.46299 | 114° | 33km/h | 2787m | -7.8m/s | 0°C | 0% | 0hPa | 0V | 00:00:00 | 00:00:00 | 00:00:00 | |
| EA3GEO | 2026-09-02 12:24:18 | 41.09872 | 2.46147 | 108° | 42km/h | 2902m | -6.5m/s | 0°C | 0% | 0hPa | 0V | 00:00:00 | 00:00:00 | 00:00:00 | |
| EA3GEO | 2026-09-02 12:24:12 | 41.09889 | 2.46069 | 102° | 40km/h | 2944m | -7.1m/s | 0°C | 0% | 0hPa | 0V | 00:00:00 | 00:00:00 | 00:00:00 | |
| EA3GEO | 2026-09-02 12:24:06 | 41.09903 | 2.45988 | 107° | 42km/h | 2991m | -7.6m/s | 0°C | 0% | 0hPa | 0V | 00:00:00 | 00:00:00 | 00:00:00 | |
| EA3GEO | 2026-09-02 12:24:00 | 41.09915 | 2.45906 | 108° | 42km/h | 3041m | -7.6m/s | 0°C | 0% | 0hPa | 0V | 00:00:00 | 00:00:00 | 00:00:00 | |
| EA3GEO | 2026-09-02 12:23:55 | 41.09925 | 2.45837 | 105° | 46km/h | 3080m | -6.0m/s | 0°C | 0% | 0hPa | 0V | 00:00:00 | 00:00:00 | 00:00:00 | |
| EA3GEO | 2026-09-02 12:23:45 | 41.09941 | 2.45698 | 97° | 46km/h | 3164m | -8.2m/s | 0°C | 0% | 0hPa | 0V | 00:00:00 | 00:00:00 | 00:00:00 | |
| EA3GEO | 2026-09-02 12:23:40 | 41.09946 | 2.45623 | 97° | 46km/h | 3208m | -7.6m/s | 0°C | 0% | 0hPa | 0V | 00:00:00 | 00:00:00 | 00:00:00 | |
| EA3GEO | 2026-09-02 12:23:34 | 41.09953 | 2.45529 | 97° | 49km/h | 3258m | -9.4m/s | 0°C | 0% | 0hPa | 0V | 00:00:00 | 00:00:00 | 00:00:00 | |
| EA3GEO | 2026-09-02 12:23:28 | 41.09960 | 2.45430 | 97° | 49km/h | 3306m | -6.0m/s | 0°C | 0% | 0hPa | 0V | 00:00:00 | 00:00:00 | 00:00:00 | |
| EA3GEO | 2026-09-02 12:23:22 | 41.09966 | 2.45330 | 94° | 49km/h | 3353m | -7.8m/s | 0°C | 0% | 0hPa | 0V | 00:00:00 | 00:00:00 | 00:00:00 | |
| EA3GEO | 2026-09-02 12:23:16 | 41.09971 | 2.45227 | 95° | 53km/h | 3403m | -8.0m/s | 0°C | 0% | 0hPa | 0V | 00:00:00 | 00:00:00 | 00:00:00 | |
| EA3GEO | 2026-09-02 12:23:10 | 41.09972 | 2.45123 | 93° | 53km/h | 3456m | -8.7m/s | 0°C | 0% | 0hPa | 0V | 00:00:00 | 00:00:00 | 00:00:00 | |
| EA3GEO | 2026-09-02 12:23:06 | 41.09973 | 2.45035 | 89° | 53km/h | 3497m | -7.2m/s | 0°C | 0% | 0hPa | 0V | 00:00:00 | 00:00:00 | 00:00:00 | |
| EA3GEO | 2026-09-02 12:22:59 | 41.09973 | 2.44927 | 88° | 53km/h | 3549m | -9.0m/s | 0°C | 0% | 0hPa | 0V | 00:00:00 | 00:00:00 | 00:00:00 | |
| EA3GEO | 2026-09-02 12:22:48 | 41.09966 | 2.44727 | 87° | 55km/h | 3648m | -6.7m/s | 0°C | 0% | 0hPa | 0V | 00:00:00 | 00:00:00 | 00:00:00 | |
| EA3GEO | 2026-09-02 12:22:43 | 41.09960 | 2.44634 | 86° | 58km/h | 3684m | -7.3m/s | 0°C | 0% | 0hPa | 0V | 00:00:00 | 00:00:00 | 00:00:00 | |
| EA3GEO | 2026-09-02 12:22:37 | 41.09953 | 2.44520 | 86° | 57km/h | 3739m | -6.6m/s | 0°C | 0% | 0hPa | 0V | 00:00:00 | 00:00:00 | 00:00:00 | |
| EA3GEO | 2026-09-02 12:22:32 | 41.09945 | 2.44426 | 86° | 57km/h | 3781m | -9.1m/s | 0°C | 0% | 0hPa | 0V | 00:00:00 | 00:00:00 | 00:00:00 | |
| EA3GEO | 2026-09-02 12:22:27 | 41.09936 | 2.44331 | 83° | 58km/h | 3822m | -8.7m/s | 0°C | 0% | 0hPa | 0V | 00:00:00 | 00:00:00 | 00:00:00 | |
| EA3GEO | 2026-09-02 12:22:21 | 41.09925 | 2.44216 | 83° | 58km/h | 3871m | -6.4m/s | 0°C | 0% | 0hPa | 0V | 00:00:00 | 00:00:00 | 00:00:00 | |
| EA3GEO | 2026-09-02 12:22:16 | 41.09917 | 2.44121 | 85° | 58km/h | 3913m | -9.1m/s | 0°C | 0% | 0hPa | 0V | 00:00:00 | 00:00:00 | 00:00:00 | |
| EA3GEO | 2026-09-02 12:22:10 | 41.09906 | 2.44005 | 85° | 58km/h | 3970m | -8.4m/s | 0°C | 0% | 0hPa | 0V | 00:00:00 | 00:00:00 | 00:00:00 | |
| EA3GEO | 2026-09-02 12:22:04 | 41.09901 | 2.43889 | 89° | 57km/h | 4018m | -5.4m/s | 0°C | 0% | 0hPa | 0V | 00:00:00 | 00:00:00 | 00:00:00 | |
| EA3GEO | 2026-09-02 12:21:59 | 41.09895 | 2.43795 | 88° | 57km/h | 4057m | -6.1m/s | 0°C | 0% | 0hPa | 0V | 00:00:00 | 00:00:00 | 00:00:00 | |
| EA3GEO | 2026-09-02 12:21:53 | 41.09888 | 2.43686 | 87° | 55km/h | 4109m | -7.2m/s | 0°C | 0% | 0hPa | 0V | 00:00:00 | 00:00:00 | 00:00:00 | |
| EA3GEO | 2026-09-02 12:21:48 | 41.09884 | 2.43595 | 86° | 53km/h | 4150m | -7.1m/s | 0°C | 0% | 0hPa | 0V | 00:00:00 | 00:00:00 | 00:00:00 | |
| EA3GEO | 2026-09-02 12:21:42 | 41.09877 | 2.43488 | 87° | 55km/h | 4204m | -8.8m/s | 0°C | 0% | 0hPa | 0V | 00:00:00 | 00:00:00 | 00:00:00 | |
| EA3GEO | 2026-09-02 12:21:37 | 41.09872 | 2.43397 | 90° | 53km/h | 4243m | -5.9m/s | 0°C | 0% | 0hPa | 0V | 00:00:00 | 00:00:00 | 00:00:00 | |
| EA3GEO | 2026-09-02 12:21:31 | 41.09870 | 2.43289 | 92° | 51km/h | 4296m | -7.8m/s | 0°C | 0% | 0hPa | 0V | 00:00:00 | 00:00:00 | 00:00:00 | |
| EA3GEO | 2026-09-02 12:21:25 | 41.09872 | 2.43183 | 93° | 55km/h | 4350m | -9.8m/s | 0°C | 0% | 0hPa | 0V | 00:00:00 | 00:00:00 | 00:00:00 | |
| EA3GEO | 2026-09-02 12:21:19 | 41.09878 | 2.43072 | 94° | 57km/h | 4405m | -6.2m/s | 0°C | 0% | 0hPa | 0V | 00:00:00 | 00:00:00 | 00:00:00 | |
| EA3GEO | 2026-09-02 12:21:13 | 41.09886 | 2.42962 | 98° | 57km/h | 4455m | -7.8m/s | 0°C | 0% | 0hPa | 0V | 00:00:00 | 00:00:00 | 00:00:00 | |
| EA3GEO | 2026-09-02 12:21:08 | 41.09897 | 2.42869 | 101° | 57km/h | 4498m | -6.7m/s | 0°C | 0% | 0hPa | 0V | 00:00:00 | 00:00:00 | 00:00:00 | |
| EA3GEO | 2026-09-02 12:21:02 | 41.09911 | 2.42757 | 101° | 55km/h | 4550m | -6.8m/s | 0°C | 0% | 0hPa | 0V | 00:00:00 | 00:00:00 | 00:00:00 | |
| EA3GEO | 2026-09-02 12:20:56 | 41.09928 | 2.42646 | 104° | 58km/h | 4599m | -6.9m/s | 0°C | 0% | 0hPa | 0V | 00:00:00 | 00:00:00 | 00:00:00 | |
| EA3GEO | 2026-09-02 12:20:51 | 41.09943 | 2.42552 | 101° | 55km/h | 4645m | -10.1m/s | 0°C | 0% | 0hPa | 0V | 00:00:00 | 00:00:00 | 00:00:00 | |
| EA3GEO | 2026-09-02 12:20:45 | 41.09962 | 2.42440 | 100° | 60km/h | 4693m | -6.8m/s | 0°C | 0% | 0hPa | 0V | 00:00:00 | 00:00:00 | 00:00:00 | |
| EA3GEO | 2026-09-02 12:20:40 | 41.09975 | 2.42345 | 102° | 57km/h | 4737m | -7.4m/s | 0°C | 0% | 0hPa | 0V | 00:00:00 | 00:00:00 | 00:00:00 | |
| EA3GEO | 2026-09-02 12:20:34 | 41.09989 | 2.42237 | 101° | 53km/h | 4788m | -5.7m/s | 0°C | 0% | 0hPa | 0V | 00:00:00 | 00:00:00 | 00:00:00 | |
| EA3GEO | 2026-09-02 12:20:28 | 41.10004 | 2.42133 | 102° | 53km/h | 4838m | -9.1m/s | 0°C | 0% | 0hPa | 0V | 00:00:00 | 00:00:00 | 00:00:00 | |
| EA3GEO | 2026-09-02 12:20:23 | 41.10015 | 2.42051 | 102° | 47km/h | 4881m | -9.1m/s | 0°C | 0% | 0hPa | 0V | 00:00:00 | 00:00:00 | 00:00:00 | |
| EA3GEO | 2026-09-02 12:20:18 | 41.10030 | 2.41954 | 101° | 49km/h | 4933m | -7.9m/s | 0°C | 0% | 0hPa | 0V | 00:00:00 | 00:00:00 | 00:00:00 | |
| EA3GEO | 2026-09-02 12:20:12 | 41.10045 | 2.41862 | 103° | 49km/h | 4984m | -6.1m/s | 0°C | 0% | 0hPa | 0V | 00:00:00 | 00:00:00 | 00:00:00 | |
| EA3GEO | 2026-09-02 12:20:06 | 41.10060 | 2.41783 | 103° | 46km/h | 5030m | -9.3m/s | 0°C | 0% | 0hPa | 0V | 00:00:00 | 00:00:00 | 00:00:00 | |
| EA3GEO | 2026-09-02 12:20:00 | 41.10079 | 2.41685 | 102° | 49km/h | 5080m | -8.0m/s | 0°C | 0% | 0hPa | 0V | 00:00:00 | 00:00:00 | 00:00:00 | |
| EA3GEO | 2026-09-02 12:19:54 | 41.10096 | 2.41586 | 105° | 53km/h | 5134m | -7.2m/s | 0°C | 0% | 0hPa | 0V | 00:00:00 | 00:00:00 | 00:00:00 | |
| EA3GEO | 2026-09-02 12:19:49 | 41.10112 | 2.41501 | 104° | 51km/h | 5178m | -8.7m/s | 0°C | 0% | 0hPa | 0V | 00:00:00 | 00:00:00 | 00:00:00 | |
| EA3GEO | 2026-09-02 12:19:44 | 41.10129 | 2.41406 | 104° | 46km/h | 5233m | -6.6m/s | 0°C | 0% | 0hPa | 0V | 00:00:00 | 00:00:00 | 00:00:00 | |
| EA3GEO | 2026-09-02 12:19:37 | 41.10147 | 2.41314 | 108° | 47km/h | 5286m | -7.3m/s | 0°C | 0% | 0hPa | 0V | 00:00:00 | 00:00:00 | 00:00:00 | |
| EA3GEO | 2026-09-02 12:19:32 | 41.10163 | 2.41239 | 111° | 47km/h | 5332m | -9.0m/s | 0°C | 0% | 0hPa | 0V | 00:00:00 | 00:00:00 | 00:00:00 | |
| EA3GEO | 2026-09-02 12:19:26 | 41.10181 | 2.41149 | 105° | 46km/h | 5385m | -8.6m/s | 0°C | 0% | 0hPa | 0V | 00:00:00 | 00:00:00 | 00:00:00 | |
| EA3GEO | 2026-09-02 12:19:21 | 41.10198 | 2.41073 | 106° | 47km/h | 5430m | -8.1m/s | 0°C | 0% | 0hPa | 0V | 00:00:00 | 00:00:00 | 00:00:00 | |
| EA3GEO | 2026-09-02 12:19:15 | 41.10217 | 2.40980 | 111° | 47km/h | 5482m | -7.9m/s | 0°C | 0% | 0hPa | 0V | 00:00:00 | 00:00:00 | 00:00:00 | |
| EA3GEO | 2026-09-02 12:19:10 | 41.10234 | 2.40903 | 106° | 51km/h | 5532m | -8.6m/s | 0°C | 0% | 0hPa | 0V | 00:00:00 | 00:00:00 | 00:00:00 | |
| EA3GEO | 2026-09-02 12:19:04 | 41.10255 | 2.40807 | 110° | 51km/h | 5588m | -8.9m/s | 0°C | 0% | 0hPa | 0V | 00:00:00 | 00:00:00 | 00:00:00 | |
| EA3GEO | 2026-09-02 12:18:58 | 41.10277 | 2.40711 | 108° | 51km/h | 5642m | -7.4m/s | 0°C | 0% | 0hPa | 0V | 00:00:00 | 00:00:00 | 00:00:00 | |
| EA3GEO | 2026-09-02 12:18:53 | 41.10297 | 2.40632 | 110° | 49km/h | 5692m | -10.3m/s | 0°C | 0% | 0hPa | 0V | 00:00:00 | 00:00:00 | 00:00:00 | |
| EA3GEO | 2026-09-02 12:18:47 | 41.10322 | 2.40547 | 109° | 42km/h | 5742m | -7.7m/s | 0°C | 0% | 0hPa | 0V | 00:00:00 | 00:00:00 | 00:00:00 | |
| EA3GEO | 2026-09-02 12:18:41 | 41.10345 | 2.40468 | 113° | 38km/h | 5799m | -5.8m/s | 0°C | 0% | 0hPa | 0V | 00:00:00 | 00:00:00 | 00:00:00 | |
| EA3GEO | 2026-09-02 12:18:35 | 41.10364 | 2.40398 | 113° | 37km/h | 5854m | -9.8m/s | 0°C | 0% | 0hPa | 0V | 00:00:00 | 00:00:00 | 00:00:00 | |
| EA3GEO | 2026-09-02 12:18:29 | 41.10383 | 2.40333 | 116° | 33km/h | 5915m | -7.9m/s | 0°C | 0% | 0hPa | 0V | 00:00:00 | 00:00:00 | 00:00:00 | |
| EA3GEO | 2026-09-02 12:18:24 | 41.10400 | 2.40284 | 118° | 33km/h | 5959m | -7.9m/s | 0°C | 0% | 0hPa | 0V | 00:00:00 | 00:00:00 | 00:00:00 | |
| EA3GEO | 2026-09-02 12:18:18 | 41.10423 | 2.40225 | 122° | 33km/h | 6019m | -7.6m/s | 0°C | 0% | 0hPa | 0V | 00:00:00 | 00:00:00 | 00:00:00 | |
| EA3GEO | 2026-09-02 12:18:13 | 41.10447 | 2.40166 | 121° | 33km/h | 6074m | -8.4m/s | 0°C | 0% | 0hPa | 0V | 00:00:00 | 00:00:00 | 00:00:00 | |
| EA3GEO | 2026-09-02 12:18:08 | 41.10467 | 2.40118 | 122° | 35km/h | 6124m | -5.9m/s | 0°C | 0% | 0hPa | 0V | 00:00:00 | 00:00:00 | 00:00:00 | |
| EA3GEO | 2026-09-02 12:17:56 | 41.10512 | 2.40022 | 133° | 29km/h | 6223m | -8.2m/s | 0°C | 0% | 0hPa | 0V | 00:00:00 | 00:00:00 | 00:00:00 | |
| EA3GEO | 2026-09-02 12:17:50 | 41.10542 | 2.39977 | 134° | 31km/h | 6278m | -8.3m/s | 0°C | 0% | 0hPa | 0V | 00:00:00 | 00:00:00 | 00:00:00 | |
| EA3GEO | 2026-09-02 12:17:45 | 41.10569 | 2.39937 | 134° | 33km/h | 6322m | -8.7m/s | 0°C | 0% | 0hPa | 0V | 00:00:00 | 00:00:00 | 00:00:00 | |
| EA3GEO | 2026-09-02 12:17:39 | 41.10606 | 2.39889 | 137° | 38km/h | 6384m | -7.6m/s | 0°C | 0% | 0hPa | 0V | 00:00:00 | 00:00:00 | 00:00:00 | |
| EA3GEO | 2026-09-02 12:17:34 | 41.10637 | 2.39846 | 136° | 38km/h | 6436m | -8.6m/s | 0°C | 0% | 0hPa | 0V | 00:00:00 | 00:00:00 | 00:00:00 | |
| EA3GEO | 2026-09-02 12:17:28 | 41.10675 | 2.39791 | 131° | 37km/h | 6491m | -5.3m/s | 0°C | 0% | 0hPa | 0V | 00:00:00 | 00:00:00 | 00:00:00 | |
| EA3GEO | 2026-09-02 12:17:22 | 41.10712 | 2.39732 | 128° | 37km/h | 6548m | -8.1m/s | 0°C | 0% | 0hPa | 0V | 00:00:00 | 00:00:00 | 00:00:00 | |
| EA3GEO | 2026-09-02 12:17:16 | 41.10748 | 2.39674 | 130° | 35km/h | 6603m | -7.4m/s | 0°C | 0% | 0hPa | 0V | 00:00:00 | 00:00:00 | 00:00:00 | |
| EA3GEO | 2026-09-02 12:17:11 | 41.10775 | 2.39627 | 127° | 37km/h | 6649m | -7.7m/s | 0°C | 0% | 0hPa | 0V | 00:00:00 | 00:00:00 | 00:00:00 | |
| EA3GEO | 2026-09-02 12:17:06 | 41.10802 | 2.39578 | 124° | 35km/h | 6693m | -9.0m/s | 0°C | 0% | 0hPa | 0V | 00:00:00 | 00:00:00 | 00:00:00 | |
| EA3GEO | 2026-09-02 12:17:00 | 41.10833 | 2.39519 | 127° | 37km/h | 6749m | -8.8m/s | 0°C | 0% | 0hPa | 0V | 00:00:00 | 00:00:00 | 00:00:00 | |
| EA3GEO | 2026-09-02 12:16:55 | 41.10860 | 2.39469 | 122° | 37km/h | 6796m | -10.2m/s | 0°C | 0% | 0hPa | 0V | 00:00:00 | 00:00:00 | 00:00:00 | |
| EA3GEO | 2026-09-02 12:16:46 | 41.10914 | 2.39373 | 131° | 37km/h | 6892m | -9.5m/s | 0°C | 0% | 0hPa | 0V | 00:00:00 | 00:00:00 | 00:00:00 | |
| EA3GEO | 2026-09-02 12:16:41 | 41.10947 | 2.39317 | 124° | 33km/h | 6950m | -8.6m/s | 0°C | 0% | 0hPa | 0V | 00:00:00 | 00:00:00 | 00:00:00 | |
| EA3GEO | 2026-09-02 12:16:33 | 41.10979 | 2.39263 | 131° | 31km/h | 7011m | -8.4m/s | 0°C | 0% | 0hPa | 0V | 00:00:00 | 00:00:00 | 00:00:00 | |
| EA3GEO | 2026-09-02 12:16:27 | 41.11013 | 2.39210 | 132° | 37km/h | 7065m | -10.1m/s | 0°C | 0% | 0hPa | 0V | 00:00:00 | 00:00:00 | 00:00:00 | |
| EA3GEO | 2026-09-02 12:16:22 | 41.11045 | 2.39168 | 134° | 37km/h | 7113m | -9.1m/s | 0°C | 0% | 0hPa | 0V | 00:00:00 | 00:00:00 | 00:00:00 | |
| EA3GEO | 2026-09-02 12:16:18 | 41.11076 | 2.39129 | 138° | 35km/h | 7161m | -7.3m/s | 0°C | 0% | 0hPa | 0V | 00:00:00 | 00:00:00 | 00:00:00 | |
| EA3GEO | 2026-09-02 12:16:11 | 41.11118 | 2.39083 | 142° | 35km/h | 7223m | -8.2m/s | 0°C | 0% | 0hPa | 0V | 00:00:00 | 00:00:00 | 00:00:00 | |
| EA3GEO | 2026-09-02 12:16:05 | 41.11162 | 2.39037 | 142° | 40km/h | 7280m | -7.6m/s | 0°C | 0% | 0hPa | 0V | 00:00:00 | 00:00:00 | 00:00:00 | |
| EA3GEO | 2026-09-02 12:16:00 | 41.11210 | 2.38991 | 143° | 38km/h | 7333m | -9.0m/s | 0°C | 0% | 0hPa | 0V | 00:00:00 | 00:00:00 | 00:00:00 | |
| EA3GEO | 2026-09-02 12:15:53 | 41.11258 | 2.38948 | 149° | 38km/h | 7392m | -8.7m/s | 0°C | 0% | 0hPa | 0V | 00:00:00 | 00:00:00 | 00:00:00 | |
| EA3GEO | 2026-09-02 12:15:47 | 41.11308 | 2.38908 | 152° | 40km/h | 7449m | -8.1m/s | 0°C | 0% | 0hPa | 0V | 00:00:00 | 00:00:00 | 00:00:00 | |
| EA3GEO | 2026-09-02 12:15:42 | 41.11352 | 2.38879 | 155° | 37km/h | 7498m | -11.7m/s | 0°C | 0% | 0hPa | 0V | 00:00:00 | 00:00:00 | 00:00:00 | |
| EA3GEO | 2026-09-02 12:15:37 | 41.11397 | 2.38850 | 153° | 35km/h | 7550m | -8.4m/s | 0°C | 0% | 0hPa | 0V | 00:00:00 | 00:00:00 | 00:00:00 | |
| EA3GEO | 2026-09-02 12:15:31 | 41.11448 | 2.38815 | 159° | 40km/h | 7607m | -7.8m/s | 0°C | 0% | 0hPa | 0V | 00:00:00 | 00:00:00 | 00:00:00 | |
| EA3GEO | 2026-09-02 12:15:25 | 41.11502 | 2.38781 | 155° | 38km/h | 7669m | -8.5m/s | 0°C | 0% | 0hPa | 0V | 00:00:00 | 00:00:00 | 00:00:00 | |
| EA3GEO | 2026-09-02 12:15:14 | 41.11596 | 2.38723 | 154° | 37km/h | 7776m | -8.7m/s | 0°C | 0% | 0hPa | 0V | 00:00:00 | 00:00:00 | 00:00:00 | |
| EA3GEO | 2026-09-02 12:15:09 | 41.11636 | 2.38697 | 150° | 35km/h | 7824m | -8.4m/s | 0°C | 0% | 0hPa | 0V | 00:00:00 | 00:00:00 | 00:00:00 | |
| EA3GEO | 2026-09-02 12:15:04 | 41.11677 | 2.38671 | 153° | 35km/h | 7875m | -7.6m/s | 0°C | 0% | 0hPa | 0V | 00:00:00 | 00:00:00 | 00:00:00 | |
| EA3GEO | 2026-09-02 12:14:58 | 41.11722 | 2.38642 | 160° | 35km/h | 7938m | -7.8m/s | 0°C | 0% | 0hPa | 0V | 00:00:00 | 00:00:00 | 00:00:00 | |
| EA3GEO | 2026-09-02 12:14:53 | 41.11759 | 2.38619 | 158° | 35km/h | 7987m | -10.2m/s | 0°C | 0% | 0hPa | 0V | 00:00:00 | 00:00:00 | 00:00:00 | |
| EA3GEO | 2026-09-02 12:14:47 | 41.11803 | 2.38594 | 161° | 29km/h | 8045m | -9.0m/s | 0°C | 0% | 0hPa | 0V | 00:00:00 | 00:00:00 | 00:00:00 | |
| EA3GEO | 2026-09-02 12:14:42 | 41.11841 | 2.38577 | 166° | 31km/h | 8094m | -9.2m/s | 0°C | 0% | 0hPa | 0V | 00:00:00 | 00:00:00 | 00:00:00 | |
| EA3GEO | 2026-09-02 12:14:37 | 41.11882 | 2.38564 | 171° | 35km/h | 8149m | -8.5m/s | 0°C | 0% | 0hPa | 0V | 00:00:00 | 00:00:00 | 00:00:00 | |
| EA3GEO | 2026-09-02 12:14:31 | 41.11935 | 2.38550 | 173° | 37km/h | 8210m | -8.5m/s | 0°C | 0% | 0hPa | 0V | 00:00:00 | 00:00:00 | 00:00:00 | |
| EA3GEO | 2026-09-02 12:14:26 | 41.11982 | 2.38540 | 173° | 38km/h | 8263m | -10.0m/s | 0°C | 0% | 0hPa | 0V | 00:00:00 | 00:00:00 | 00:00:00 | |
| EA3GEO | 2026-09-02 12:14:20 | 41.12042 | 2.38526 | 172° | 38km/h | 8323m | -10.8m/s | 0°C | 0% | 0hPa | 0V | 00:00:00 | 00:00:00 | 00:00:00 | |
| EA3GEO | 2026-09-02 12:14:15 | 41.12091 | 2.38514 | 172° | 40km/h | 8376m | -9.9m/s | 0°C | 0% | 0hPa | 0V | 00:00:00 | 00:00:00 | 00:00:00 | |
| EA3GEO | 2026-09-02 12:14:10 | 41.12140 | 2.38501 | 173° | 40km/h | 8429m | -8.8m/s | 0°C | 0% | 0hPa | 0V | 00:00:00 | 00:00:00 | 00:00:00 | |
| EA3GEO | 2026-09-02 12:14:04 | 41.12199 | 2.38485 | 166° | 40km/h | 8486m | -7.8m/s | 0°C | 0% | 0hPa | 0V | 00:00:00 | 00:00:00 | 00:00:00 | |
| EA3GEO | 2026-09-02 12:13:58 | 41.12256 | 2.38467 | 168° | 37km/h | 8542m | -9.0m/s | 0°C | 0% | 0hPa | 0V | 00:00:00 | 00:00:00 | 00:00:00 | |
| EA3GEO | 2026-09-02 12:13:53 | 41.12301 | 2.38451 | 166° | 40km/h | 8594m | -7.7m/s | 0°C | 0% | 0hPa | 0V | 00:00:00 | 00:00:00 | 00:00:00 | |
| EA3GEO | 2026-09-02 12:13:48 | 41.12349 | 2.38436 | 165° | 37km/h | 8645m | -8.2m/s | 0°C | 0% | 0hPa | 0V | 00:00:00 | 00:00:00 | 00:00:00 | |
| EA3GEO | 2026-09-02 12:13:43 | 41.12396 | 2.38423 | 169° | 38km/h | 8698m | -9.8m/s | 0°C | 0% | 0hPa | 0V | 00:00:00 | 00:00:00 | 00:00:00 | |
| EA3GEO | 2026-09-02 12:13:37 | 41.12453 | 2.38409 | 172° | 40km/h | 8760m | -9.2m/s | 0°C | 0% | 0hPa | 0V | 00:00:00 | 00:00:00 | 00:00:00 | |
| EA3GEO | 2026-09-02 12:13:31 | 41.12514 | 2.38398 | 176° | 38km/h | 8825m | -10.0m/s | 0°C | 0% | 0hPa | 0V | 00:00:00 | 00:00:00 | 00:00:00 | |
| EA3GEO | 2026-09-02 12:13:25 | 41.12574 | 2.38395 | 180° | 37km/h | 8884m | -7.6m/s | 0°C | 0% | 0hPa | 0V | 00:00:00 | 00:00:00 | 00:00:00 | |
| EA3GEO | 2026-09-02 12:13:19 | 41.12635 | 2.38396 | 180° | 42km/h | 8943m | -7.2m/s | 0°C | 0% | 0hPa | 0V | 00:00:00 | 00:00:00 | 00:00:00 | |
| EA3GEO | 2026-09-02 12:13:14 | 41.12696 | 2.38399 | 184° | 38km/h | 9003m | -6.8m/s | 0°C | 0% | 0hPa | 0V | 00:00:00 | 00:00:00 | 00:00:00 | |
| EA3GEO | 2026-09-02 12:13:08 | 41.12749 | 2.38403 | 181° | 40km/h | 9051m | -9.6m/s | 0°C | 0% | 0hPa | 0V | 00:00:00 | 00:00:00 | 00:00:00 | |
| EA3GEO | 2026-09-02 12:13:03 | 41.12803 | 2.38406 | 188° | 42km/h | 9101m | -10.4m/s | 0°C | 0% | 0hPa | 0V | 00:00:00 | 00:00:00 | 00:00:00 | |
| EA3GEO | 2026-09-02 12:12:57 | 41.12869 | 2.38409 | 179° | 42km/h | 9166m | -8.9m/s | 0°C | 0% | 0hPa | 0V | 00:00:00 | 00:00:00 | 00:00:00 | |
| EA3GEO | 2026-09-02 12:12:51 | 41.12938 | 2.38412 | 189° | 47km/h | 9232m | -9.9m/s | 0°C | 0% | 0hPa | 0V | 00:00:00 | 00:00:00 | 00:00:00 | |
| EA3GEO | 2026-09-02 12:12:46 | 41.12998 | 2.38420 | 184° | 49km/h | 9276m | -8.9m/s | 0°C | 0% | 0hPa | 0V | 00:00:00 | 00:00:00 | 00:00:00 | |
| EA3GEO | 2026-09-02 12:12:40 | 41.13071 | 2.38429 | 183° | 47km/h | 9330m | -7.5m/s | 0°C | 0% | 0hPa | 0V | 00:00:00 | 00:00:00 | 00:00:00 | |
| EA3GEO | 2026-09-02 12:12:34 | 41.13142 | 2.38434 | 187° | 47km/h | 9380m | -7.6m/s | 0°C | 0% | 0hPa | 0V | 00:00:00 | 00:00:00 | 00:00:00 | |
| EA3GEO | 2026-09-02 12:12:28 | 41.13212 | 2.38441 | 186° | 51km/h | 9437m | -8.1m/s | 0°C | 0% | 0hPa | 0V | 00:00:00 | 00:00:00 | 00:00:00 | |
| EA3GEO | 2026-09-02 12:12:23 | 41.13275 | 2.38451 | 188° | 49km/h | 9479m | -4.8m/s | 0°C | 0% | 0hPa | 0V | 00:00:00 | 00:00:00 | 00:00:00 | |
| EA3GEO | 2026-09-02 12:12:17 | 41.13345 | 2.38467 | 191° | 49km/h | 9533m | -9.7m/s | 0°C | 0% | 0hPa | 0V | 00:00:00 | 00:00:00 | 00:00:00 | |
| EA3GEO | 2026-09-02 12:12:11 | 41.13414 | 2.38483 | 188° | 47km/h | 9586m | -8.4m/s | 0°C | 0% | 0hPa | 0V | 00:00:00 | 00:00:00 | 00:00:00 | |
| EA3GEO | 2026-09-02 12:12:06 | 41.13475 | 2.38496 | 188° | 53km/h | 9632m | -10.0m/s | 0°C | 0% | 0hPa | 0V | 00:00:00 | 00:00:00 | 00:00:00 | |
| EA3GEO | 2026-09-02 12:12:00 | 41.13550 | 2.38517 | 199° | 49km/h | 9687m | -7.4m/s | 0°C | 0% | 0hPa | 0V | 00:00:00 | 00:00:00 | 00:00:00 | |
| EA3GEO | 2026-09-02 12:11:54 | 41.13624 | 2.38545 | 193° | 53km/h | 9736m | -8.0m/s | 0°C | 0% | 0hPa | 0V | 00:00:00 | 00:00:00 | 00:00:00 | |
| EA3GEO | 2026-09-02 12:11:49 | 41.13686 | 2.38568 | 198° | 49km/h | 9777m | -8.0m/s | 0°C | 0% | 0hPa | 0V | 00:00:00 | 00:00:00 | 00:00:00 | |
| EA3GEO | 2026-09-02 12:11:43 | 41.13758 | 2.38599 | 198° | 51km/h | 9837m | -7.1m/s | 0°C | 0% | 0hPa | 0V | 00:00:00 | 00:00:00 | 00:00:00 | |
| EA3GEO | 2026-09-02 12:11:37 | 41.13830 | 2.38630 | 200° | 53km/h | 9894m | -10.6m/s | 0°C | 0% | 0hPa | 0V | 00:00:00 | 00:00:00 | 00:00:00 | |
| EA3GEO | 2026-09-02 12:11:31 | 41.13902 | 2.38657 | 200° | 51km/h | 9949m | -5.9m/s | 0°C | 0% | 0hPa | 0V | 00:00:00 | 00:00:00 | 00:00:00 | |
| EA3GEO | 2026-09-02 12:11:26 | 41.13962 | 2.38682 | 200° | 55km/h | 9996m | -8.7m/s | 0°C | 0% | 0hPa | 0V | 00:00:00 | 00:00:00 | 00:00:00 | |
| EA3GEO | 2026-09-02 12:11:21 | 41.14024 | 2.38709 | 202° | 51km/h | 10042m | -6.1m/s | 0°C | 0% | 0hPa | 0V | 00:00:00 | 00:00:00 | 00:00:00 | |
| EA3GEO | 2026-09-02 12:11:16 | 41.14086 | 2.38736 | 202° | 51km/h | 10086m | -7.9m/s | 0°C | 0% | 0hPa | 0V | 00:00:00 | 00:00:00 | 00:00:00 | |
| EA3GEO | 2026-09-02 12:11:10 | 41.14162 | 2.38769 | 200° | 58km/h | 10135m | -7.5m/s | 0°C | 0% | 0hPa | 0V | 00:00:00 | 00:00:00 | 00:00:00 | |
| EA3GEO | 2026-09-02 12:11:04 | 41.14242 | 2.38805 | 199° | 57km/h | 10189m | -3.8m/s | 0°C | 0% | 0hPa | 0V | 00:00:00 | 00:00:00 | 00:00:00 | |
| EA3GEO | 2026-09-02 12:10:58 | 41.14323 | 2.38839 | 198° | 55km/h | 10240m | -6.3m/s | 0°C | 0% | 0hPa | 0V | 00:00:00 | 00:00:00 | 00:00:00 | |
| EA3GEO | 2026-09-02 12:10:52 | 41.14403 | 2.38872 | 201° | 55km/h | 10296m | -7.8m/s | 0°C | 0% | 0hPa | 0V | 00:00:00 | 00:00:00 | 00:00:00 | |
| EA3GEO | 2026-09-02 12:10:47 | 41.14469 | 2.38905 | 201° | 58km/h | 10340m | -5.7m/s | 0°C | 0% | 0hPa | 0V | 00:00:00 | 00:00:00 | 00:00:00 | |
| EA3GEO | 2026-09-02 12:10:41 | 41.14554 | 2.38943 | 199° | 62km/h | 10396m | -6.3m/s | 0°C | 0% | 0hPa | 0V | 00:00:00 | 00:00:00 | 00:00:00 | |
| EA3GEO | 2026-09-02 12:10:37 | 41.14625 | 2.38977 | 199° | 58km/h | 10433m | -8.2m/s | 0°C | 0% | 0hPa | 0V | 00:00:00 | 00:00:00 | 00:00:00 | |
| EA3GEO | 2026-09-02 12:10:30 | 41.14709 | 2.39015 | 197° | 62km/h | 10489m | -10.2m/s | 0°C | 0% | 0hPa | 0V | 00:00:00 | 00:00:00 | 00:00:00 | |
| EA3GEO | 2026-09-02 12:10:25 | 41.14782 | 2.39047 | 201° | 60km/h | 10535m | -8.7m/s | 0°C | 0% | 0hPa | 0V | 00:00:00 | 00:00:00 | 00:00:00 | |
| EA3GEO | 2026-09-02 12:10:19 | 41.14869 | 2.39087 | 202° | 62km/h | 10590m | -6.8m/s | 0°C | 0% | 0hPa | 0V | 00:00:00 | 00:00:00 | 00:00:00 | |
| EA3GEO | 2026-09-02 12:10:14 | 41.14941 | 2.39121 | 199° | 60km/h | 10631m | -8.1m/s | 0°C | 0% | 0hPa | 0V | 00:00:00 | 00:00:00 | 00:00:00 | |
| EA3GEO | 2026-09-02 12:10:08 | 41.15028 | 2.39162 | 199° | 60km/h | 10688m | -7.9m/s | 0°C | 0% | 0hPa | 0V | 00:00:00 | 00:00:00 | 00:00:00 | |
| EA3GEO | 2026-09-02 12:10:03 | 41.15099 | 2.39192 | 199° | 57km/h | 10727m | -5.4m/s | 0°C | 0% | 0hPa | 0V | 00:00:00 | 00:00:00 | 00:00:00 | |
| EA3GEO | 2026-09-02 12:09:58 | 41.15165 | 2.39223 | 206° | 57km/h | 10772m | -10.7m/s | 0°C | 0% | 0hPa | 0V | 00:00:00 | 00:00:00 | 00:00:00 | |
| EA3GEO | 2026-09-02 12:09:52 | 41.15247 | 2.39260 | 197° | 60km/h | 10822m | -8.0m/s | 0°C | 0% | 0hPa | 0V | 00:00:00 | 00:00:00 | 00:00:00 | |
| EA3GEO | 2026-09-02 12:09:47 | 41.15315 | 2.39291 | 204° | 57km/h | 10865m | -9.1m/s | 0°C | 0% | 0hPa | 0V | 00:00:00 | 00:00:00 | 00:00:00 | |
| EA3GEO | 2026-09-02 12:09:42 | 41.15380 | 2.39324 | 202° | 55km/h | 10915m | -8.8m/s | 0°C | 0% | 0hPa | 0V | 00:00:00 | 00:00:00 | 00:00:00 | |
| EA3GEO | 2026-09-02 12:09:37 | 41.15460 | 2.39364 | 204° | 55km/h | 10972m | -10.8m/s | 0°C | 0% | 0hPa | 0V | 00:00:00 | 00:00:00 | 00:00:00 | |
| EA3GEO | 2026-09-02 12:09:31 | 41.15538 | 2.39399 | 200° | 55km/h | 11029m | -6.7m/s | 0°C | 0% | 0hPa | 0V | 00:00:00 | 00:00:00 | 00:00:00 | |
| EA3GEO | 2026-09-02 12:09:24 | 41.15617 | 2.39431 | 198° | 55km/h | 11080m | -7.5m/s | 0°C | 0% | 0hPa | 0V | 00:00:00 | 00:00:00 | 00:00:00 | |
| EA3GEO | 2026-09-02 12:09:19 | 41.15682 | 2.39458 | 198° | 57km/h | 11133m | -11.4m/s | 0°C | 0% | 0hPa | 0V | 00:00:00 | 00:00:00 | 00:00:00 | |
| EA3GEO | 2026-09-02 12:09:13 | 41.15756 | 2.39487 | 200° | 53km/h | 11193m | -7.4m/s | 0°C | 0% | 0hPa | 0V | 00:00:00 | 00:00:00 | 00:00:00 | |
| EA3GEO | 2026-09-02 12:09:05 | 41.15859 | 2.39531 | 201° | 55km/h | 11271m | -8.1m/s | 0°C | 0% | 0hPa | 0V | 00:00:00 | 00:00:00 | 00:00:00 | |
| EA3GEO | 2026-09-02 12:08:59 | 41.15939 | 2.39567 | 200° | 55km/h | 11327m | -6.2m/s | 0°C | 0% | 0hPa | 0V | 00:00:00 | 00:00:00 | 00:00:00 | |
| EA3GEO | 2026-09-02 12:08:54 | 41.16003 | 2.39597 | 203° | 55km/h | 11374m | -6.9m/s | 0°C | 0% | 0hPa | 0V | 00:00:00 | 00:00:00 | 00:00:00 | |
| EA3GEO | 2026-09-02 12:08:49 | 41.16068 | 2.39623 | 200° | 51km/h | 11417m | -7.8m/s | 0°C | 0% | 0hPa | 0V | 00:00:00 | 00:00:00 | 00:00:00 | |
| EA3GEO | 2026-09-02 12:08:42 | 41.16155 | 2.39661 | 201° | 51km/h | 11479m | -7.9m/s | 0°C | 0% | 0hPa | 0V | 00:00:00 | 00:00:00 | 00:00:00 | |
| EA3GEO | 2026-09-02 12:08:37 | 41.16215 | 2.39692 | 198° | 53km/h | 11527m | -8.0m/s | 0°C | 0% | 0hPa | 0V | 00:00:00 | 00:00:00 | 00:00:00 | |
| EA3GEO | 2026-09-02 12:08:31 | 41.16286 | 2.39726 | 202° | 49km/h | 11580m | -8.3m/s | 0°C | 0% | 0hPa | 0V | 00:00:00 | 00:00:00 | 00:00:00 | |
| EA3GEO | 2026-09-02 12:08:26 | 41.16344 | 2.39756 | 196° | 53km/h | 11635m | -10.1m/s | 0°C | 0% | 0hPa | 0V | 00:00:00 | 00:00:00 | 00:00:00 | |
| EA3GEO | 2026-09-02 12:08:17 | 41.16451 | 2.39801 | 199° | 47km/h | 11728m | -10.9m/s | 0°C | 0% | 0hPa | 0V | 00:00:00 | 00:00:00 | 00:00:00 | |
| EA3GEO | 2026-09-02 12:08:11 | 41.16518 | 2.39832 | 196° | 47km/h | 11790m | -9.0m/s | 0°C | 0% | 0hPa | 0V | 00:00:00 | 00:00:00 | 00:00:00 | |
| EA3GEO | 2026-09-02 12:08:05 | 41.16587 | 2.39860 | 201° | 49km/h | 11846m | -8.6m/s | 0°C | 0% | 0hPa | 0V | 00:00:00 | 00:00:00 | 00:00:00 | |
| EA3GEO | 2026-09-02 12:07:59 | 41.16660 | 2.39895 | 202° | 55km/h | 11915m | -10.2m/s | 0°C | 0% | 0hPa | 0V | 00:00:00 | 00:00:00 | 00:00:00 | |
| EA3GEO | 2026-09-02 12:07:53 | 41.16736 | 2.39932 | 202° | 49km/h | 11975m | -9.7m/s | 0°C | 0% | 0hPa | 0V | 00:00:00 | 00:00:00 | 00:00:00 | |
| EA3GEO | 2026-09-02 12:07:48 | 41.16799 | 2.39958 | 197° | 55km/h | 12027m | -9.2m/s | 0°C | 0% | 0hPa | 0V | 00:00:00 | 00:00:00 | 00:00:00 | |
| EA3GEO | 2026-09-02 12:07:42 | 41.16883 | 2.39984 | 189° | 60km/h | 12097m | -9.5m/s | 0°C | 0% | 0hPa | 0V | 00:00:00 | 00:00:00 | 00:00:00 | |
| EA3GEO | 2026-09-02 12:07:28 | 41.17097 | 2.40029 | 189° | 64km/h | 12253m | -10.3m/s | 0°C | 0% | 0hPa | 0V | 00:00:00 | 00:00:00 | 00:00:00 | |
| EA3GEO | 2026-09-02 12:07:21 | 41.17208 | 2.40051 | 190° | 68km/h | 12337m | -11.3m/s | 0°C | 0% | 0hPa | 0V | 00:00:00 | 00:00:00 | 00:00:00 | |
| EA3GEO | 2026-09-02 12:07:16 | 41.17290 | 2.40071 | 192° | 64km/h | 12405m | -11.1m/s | 0°C | 0% | 0hPa | 0V | 00:00:00 | 00:00:00 | 00:00:00 | |
| EA3GEO | 2026-09-02 12:07:11 | 41.17367 | 2.40094 | 193° | 64km/h | 12465m | -9.4m/s | 0°C | 0% | 0hPa | 0V | 00:00:00 | 00:00:00 | 00:00:00 | |
| EA3GEO | 2026-09-02 12:06:53 | 41.17596 | 2.40180 | 193° | 38km/h | 12687m | -10.5m/s | 0°C | 0% | 0hPa | 0V | 00:00:00 | 00:00:00 | 00:00:00 | |
| EA3GEO | 2026-09-02 12:06:48 | 41.17637 | 2.40192 | 197° | 24km/h | 12754m | -11.0m/s | 0°C | 0% | 0hPa | 0V | 00:00:00 | 00:00:00 | 00:00:00 | |
| EA3GEO | 2026-09-02 12:06:41 | 41.17682 | 2.40192 | 180° | 26km/h | 12834m | -9.8m/s | 0°C | 0% | 0hPa | 0V | 00:00:00 | 00:00:00 | 00:00:00 | |
| EA3GEO | 2026-09-02 12:06:35 | 41.17717 | 2.40181 | 159° | 24km/h | 12907m | -9.3m/s | 0°C | 0% | 0hPa | 0V | 00:00:00 | 00:00:00 | 00:00:00 | |
| EA3GEO | 2026-09-02 12:06:30 | 41.17745 | 2.40167 | 159° | 24km/h | 12973m | -13.5m/s | 0°C | 0% | 0hPa | 0V | 00:00:00 | 00:00:00 | 00:00:00 | |
| EA3GEO | 2026-09-02 12:06:24 | 41.17776 | 2.40140 | 142° | 26km/h | 13062m | -12.8m/s | 0°C | 0% | 0hPa | 0V | 00:00:00 | 00:00:00 | 00:00:00 | |
| EA3GEO | 2026-09-02 12:06:18 | 41.17810 | 2.40103 | 142° | 31km/h | 13141m | -11.8m/s | 0°C | 0% | 0hPa | 0V | 00:00:00 | 00:00:00 | 00:00:00 | |
| EA3GEO | 2026-09-02 12:06:12 | 41.17844 | 2.40066 | 144° | 37km/h | 13218m | -9.5m/s | 0°C | 0% | 0hPa | 0V | 00:00:00 | 00:00:00 | 00:00:00 | |
| EA3GEO | 2026-09-02 12:06:07 | 41.17881 | 2.40023 | 145° | 44km/h | 13279m | -11.8m/s | 0°C | 0% | 0hPa | 0V | 00:00:00 | 00:00:00 | 00:00:00 | |
| EA3GEO | 2026-09-02 12:06:01 | 41.17943 | 2.39975 | 156° | 51km/h | 13368m | -12.9m/s | 0°C | 0% | 0hPa | 0V | 00:00:00 | 00:00:00 | 00:00:00 | |
| EA3GEO | 2026-09-02 12:05:55 | 41.18020 | 2.39934 | 161° | 55km/h | 13447m | -11.5m/s | 0°C | 0% | 0hPa | 0V | 00:00:00 | 00:00:00 | 00:00:00 | |
| EA3GEO | 2026-09-02 12:05:50 | 41.18088 | 2.39907 | 168° | 57km/h | 13513m | -11.0m/s | 0°C | 0% | 0hPa | 0V | 00:00:00 | 00:00:00 | 00:00:00 | |
| EA3GEO | 2026-09-02 12:05:44 | 41.18166 | 2.39884 | 172° | 53km/h | 13587m | -9.1m/s | 0°C | 0% | 0hPa | 0V | 00:00:00 | 00:00:00 | 00:00:00 | |
| EA3GEO | 2026-09-02 12:05:38 | 41.18241 | 2.39867 | 170° | 49km/h | 13647m | -9.1m/s | 0°C | 0% | 0hPa | 0V | 00:00:00 | 00:00:00 | 00:00:00 | |
| EA3GEO | 2026-09-02 12:05:31 | 41.18321 | 2.39836 | 155° | 47km/h | 13721m | -9.4m/s | 0°C | 0% | 0hPa | 0V | 00:00:00 | 00:00:00 | 00:00:00 | |
| EA3GEO | 2026-09-02 12:05:24 | 41.18400 | 2.39780 | 144° | 55km/h | 13814m | -12.6m/s | 0°C | 0% | 0hPa | 0V | 00:00:00 | 00:00:00 | 00:00:00 | |
| EA3GEO | 2026-09-02 12:05:15 | 41.18503 | 2.39688 | 151° | 57km/h | 13946m | -11.4m/s | 0°C | 0% | 0hPa | 0V | 00:00:00 | 00:00:00 | 00:00:00 | |
| EA3GEO | 2026-09-02 12:05:09 | 41.18577 | 2.39635 | 153° | 53km/h | 14015m | -9.3m/s | 0°C | 0% | 0hPa | 0V | 00:00:00 | 00:00:00 | 00:00:00 | |
| EA3GEO | 2026-09-02 12:05:02 | 41.18664 | 2.39586 | 161° | 53km/h | 14081m | -11.4m/s | 0°C | 0% | 0hPa | 0V | 00:00:00 | 00:00:00 | 00:00:00 | |
| EA3GEO | 2026-09-02 12:04:56 | 41.18745 | 2.39551 | 160° | 60km/h | 14151m | -8.5m/s | 0°C | 0% | 0hPa | 0V | 00:00:00 | 00:00:00 | 00:00:00 | |
| EA3GEO | 2026-09-02 12:04:49 | 41.18845 | 2.39508 | 166° | 55km/h | 14213m | -8.2m/s | 0°C | 0% | 0hPa | 0V | 00:00:00 | 00:00:00 | 00:00:00 | |
| EA3GEO | 2026-09-02 12:04:43 | 41.18915 | 2.39477 | 152° | 42km/h | 14295m | -13.2m/s | 0°C | 0% | 0hPa | 0V | 00:00:00 | 00:00:00 | 00:00:00 | |
| EA3GEO | 2026-09-02 12:04:37 | 41.18964 | 2.39435 | 140° | 35km/h | 14379m | -15.1m/s | 0°C | 0% | 0hPa | 0V | 00:00:00 | 00:00:00 | 00:00:00 | |
| EA3GEO | 2026-09-02 12:04:31 | 41.19001 | 2.39377 | 124° | 40km/h | 14463m | -12.0m/s | 0°C | 0% | 0hPa | 0V | 00:00:00 | 00:00:00 | 00:00:00 | |
| EA3GEO | 2026-09-02 12:04:26 | 41.19026 | 2.39315 | 119° | 46km/h | 14531m | -11.1m/s | 0°C | 0% | 0hPa | 0V | 00:00:00 | 00:00:00 | 00:00:00 | |
| EA3GEO | 2026-09-02 12:04:17 | 41.19074 | 2.39196 | 113° | 44km/h | 14658m | -14.0m/s | 0°C | 0% | 0hPa | 0V | 00:00:00 | 00:00:00 | 00:00:00 | |
| EA3GEO | 2026-09-02 12:04:07 | 41.19103 | 2.39062 | 102° | 42km/h | 14813m | -13.3m/s | 0°C | 0% | 0hPa | 0V | 00:00:00 | 00:00:00 | 00:00:00 | |
| EA3GEO | 2026-09-02 12:04:00 | 41.19111 | 2.38959 | 94° | 44km/h | 14921m | -16.0m/s | 0°C | 0% | 0hPa | 0V | 00:00:00 | 00:00:00 | 00:00:00 | |
| EA3GEO | 2026-09-02 12:03:51 | 41.19123 | 2.38789 | 96° | 55km/h | 15072m | -11.7m/s | 0°C | 0% | 0hPa | 0V | 00:00:00 | 00:00:00 | 00:00:00 | |
| EA3GEO | 2026-09-02 12:03:44 | 41.19137 | 2.38679 | 104° | 55km/h | 15151m | -14.4m/s | 0°C | 0% | 0hPa | 0V | 00:00:00 | 00:00:00 | 00:00:00 | |
| EA3GEO | 2026-09-02 12:03:38 | 41.19154 | 2.38572 | 105° | 55km/h | 15228m | -8.4m/s | 0°C | 0% | 0hPa | 0V | 00:00:00 | 00:00:00 | 00:00:00 | |
| EA3GEO | 2026-09-02 12:03:32 | 41.19180 | 2.38461 | 111° | 57km/h | 15306m | -11.0m/s | 0°C | 0% | 0hPa | 0V | 00:00:00 | 00:00:00 | 00:00:00 | |
| EA3GEO | 2026-09-02 12:03:23 | 41.19227 | 2.38287 | 113° | 66km/h | 15412m | -11.0m/s | 0°C | 0% | 0hPa | 0V | 00:00:00 | 00:00:00 | 00:00:00 | |
| EA3GEO | 2026-09-02 12:03:16 | 41.19270 | 2.38148 | 111° | 64km/h | 15487m | -8.0m/s | 0°C | 0% | 0hPa | 0V | 00:00:00 | 00:00:00 | 00:00:00 | |
| EA3GEO | 2026-09-02 12:03:10 | 41.19297 | 2.38034 | 109° | 55km/h | 15549m | -8.6m/s | 0°C | 0% | 0hPa | 0V | 00:00:00 | 00:00:00 | 00:00:00 | |
| EA3GEO | 2026-09-02 12:03:05 | 41.19317 | 2.37945 | 104° | 53km/h | 15609m | -12.6m/s | 0°C | 0% | 0hPa | 0V | 00:00:00 | 00:00:00 | 00:00:00 | |
| EA3GEO | 2026-09-02 12:02:59 | 41.19326 | 2.37844 | 98° | 49km/h | 15686m | -13.9m/s | 0°C | 0% | 0hPa | 0V | 00:00:00 | 00:00:00 | 00:00:00 | |
| EA3GEO | 2026-09-02 12:02:53 | 41.19337 | 2.37736 | 97° | 57km/h | 15762m | -9.8m/s | 0°C | 0% | 0hPa | 0V | 00:00:00 | 00:00:00 | 00:00:00 | |
| EA3GEO | 2026-09-02 12:02:46 | 41.19350 | 2.37601 | 99° | 60km/h | 15840m | -11.3m/s | 0°C | 0% | 0hPa | 0V | 00:00:00 | 00:00:00 | 00:00:00 | |
| EA3GEO | 2026-09-02 12:02:40 | 41.19366 | 2.37477 | 103° | 58km/h | 15898m | -5.0m/s | 0°C | 0% | 0hPa | 0V | 00:00:00 | 00:00:00 | 00:00:00 | |
| EA3GEO | 2026-09-02 12:02:32 | 41.19396 | 2.37331 | 110° | 55km/h | 15971m | -9.6m/s | 0°C | 0% | 0hPa | 0V | 00:00:00 | 00:00:00 | 00:00:00 | |
| EA3GEO | 2026-09-02 12:02:27 | 41.19417 | 2.37245 | 108° | 51km/h | 16023m | -7.3m/s | 0°C | 0% | 0hPa | 0V | 00:00:00 | 00:00:00 | 00:00:00 | |
| EA3GEO | 2026-09-02 12:02:18 | 41.19459 | 2.37093 | 114° | 53km/h | 16139m | -10.2m/s | 0°C | 0% | 0hPa | 0V | 00:00:00 | 00:00:00 | 00:00:00 | |
| EA3GEO | 2026-09-02 12:02:12 | 41.19486 | 2.37001 | 111° | 44km/h | 16231m | -15.7m/s | 0°C | 0% | 0hPa | 0V | 00:00:00 | 00:00:00 | 00:00:00 | |
| EA3GEO | 2026-09-02 12:01:59 | 41.19503 | 2.36827 | 90° | 42km/h | 16428m | -12.1m/s | 0°C | 0% | 0hPa | 0V | 00:00:00 | 00:00:00 | 00:00:00 | |
| EA3GEO | 2026-09-02 12:01:52 | 41.19503 | 2.36726 | 98° | 44km/h | 16545m | -16.3m/s | 0°C | 0% | 0hPa | 0V | 00:00:00 | 00:00:00 | 00:00:00 | |
| EA3GEO | 2026-09-02 12:01:46 | 41.19510 | 2.36632 | 96° | 49km/h | 16644m | -13.4m/s | 0°C | 0% | 0hPa | 0V | 00:00:00 | 00:00:00 | 00:00:00 | |
| EA3GEO | 2026-09-02 12:01:39 | 41.19524 | 2.36515 | 102° | 55km/h | 16755m | -17.9m/s | 0°C | 0% | 0hPa | 0V | 00:00:00 | 00:00:00 | 00:00:00 | |
| EA3GEO | 2026-09-02 12:01:33 | 41.19546 | 2.36408 | 110° | 53km/h | 16861m | -16.8m/s | 0°C | 0% | 0hPa | 0V | 00:00:00 | 00:00:00 | 00:00:00 | |
| EA3GEO | 2026-09-02 12:01:25 | 41.19584 | 2.36288 | 114° | 46km/h | 17005m | -16.4m/s | 0°C | 0% | 0hPa | 0V | 00:00:00 | 00:00:00 | 00:00:00 | |
| EA3GEO | 2026-09-02 12:01:06 | 41.19673 | 2.36076 | 120° | 35km/h | 17320m | -17.0m/s | 0°C | 0% | 0hPa | 0V | 00:00:00 | 00:00:00 | 00:00:00 | |
| EA3GEO | 2026-09-02 12:00:58 | 41.19716 | 2.35986 | 130° | 27km/h | 17464m | -12.4m/s | 0°C | 0% | 0hPa | 0V | 00:00:00 | 00:00:00 | 00:00:00 | |
| EA3GEO | 2026-09-02 12:00:51 | 41.19747 | 2.35938 | 132° | 38km/h | 17544m | -10.8m/s | 0°C | 0% | 0hPa | 0V | 00:00:00 | 00:00:00 | 00:00:00 | |
| EA3GEO | 2026-09-02 12:00:44 | 41.19793 | 2.35856 | 127° | 55km/h | 17634m | -9.8m/s | 0°C | 0% | 0hPa | 0V | 00:00:00 | 00:00:00 | 00:00:00 | |
| EA3GEO | 2026-09-02 12:00:31 | 41.19877 | 2.35716 | 139° | 26km/h | 17797m | -8.3m/s | 0°C | 0% | 0hPa | 0V | 00:00:00 | 00:00:00 | 00:00:00 | |
| EA3GEO | 2026-09-02 12:00:26 | 41.19898 | 2.35692 | 137° | 20km/h | 17865m | -12.1m/s | 0°C | 0% | 0hPa | 0V | 00:00:00 | 00:00:00 | 00:00:00 | |
| EA3GEO | 2026-09-02 12:00:17 | 41.19908 | 2.35677 | 59° | 5km/h | 17995m | -11.9m/s | 0°C | 0% | 0hPa | 0V | 00:00:00 | 00:00:00 | 00:00:00 | |
| EA3GEO | 2026-09-02 12:00:11 | 41.19902 | 2.35668 | 19° | 7km/h | 18075m | -9.8m/s | 0°C | 0% | 0hPa | 0V | 00:00:00 | 00:00:00 | 00:00:00 | |
| EA3GEO | 2026-09-02 11:59:49 | 41.19816 | 2.35615 | 43° | 18km/h | 18386m | -8.9m/s | 0°C | 0% | 0hPa | 0V | 00:00:00 | 00:00:00 | 00:00:00 | |
| EA3GEO | 2026-09-02 11:59:43 | 41.19804 | 2.35601 | 39° | 11km/h | 18458m | -14.5m/s | 0°C | 0% | 0hPa | 0V | 00:00:00 | 00:00:00 | 00:00:00 | |
| EA3GEO | 2026-09-02 11:59:38 | 41.19802 | 2.35586 | 114° | 11km/h | 18536m | -12.3m/s | 0°C | 0% | 0hPa | 0V | 00:00:00 | 00:00:00 | 00:00:00 | |
| EA3GEO | 2026-09-02 11:59:30 | 41.19803 | 2.35568 | 114° | 2km/h | 18633m | -13.2m/s | 0°C | 0% | 0hPa | 0V | 00:00:00 | 00:00:00 | 00:00:00 | |
| EA3GEO | 2026-09-02 11:59:21 | 41.19801 | 2.35552 | 70° | 5km/h | 18766m | -16.1m/s | 0°C | 0% | 0hPa | 0V | 00:00:00 | 00:00:00 | 00:00:00 | |
| EA3GEO | 2026-09-02 11:59:16 | 41.19799 | 2.35537 | 106° | 11km/h | 18841m | -17.4m/s | 0°C | 0% | 0hPa | 0V | 00:00:00 | 00:00:00 | 00:00:00 | |
| EA3GEO | 2026-09-02 11:59:09 | 41.19791 | 2.35490 | 74° | 26km/h | 18951m | -14.2m/s | 0°C | 0% | 0hPa | 0V | 00:00:00 | 00:00:00 | 00:00:00 | |
| EA3GEO | 2026-09-02 11:59:04 | 41.19784 | 2.35445 | 77° | 29km/h | 19015m | -12.1m/s | 0°C | 0% | 0hPa | 0V | 00:00:00 | 00:00:00 | 00:00:00 | |
| EA3GEO | 2026-09-02 11:58:58 | 41.19771 | 2.35378 | 81° | 37km/h | 19109m | -14.6m/s | 0°C | 0% | 0hPa | 0V | 00:00:00 | 00:00:00 | 00:00:00 | |
| EA3GEO | 2026-09-02 11:58:51 | 41.19775 | 2.35294 | 105° | 44km/h | 19203m | -11.5m/s | 0°C | 0% | 0hPa | 0V | 00:00:00 | 00:00:00 | 00:00:00 | |
| EA3GEO | 2026-09-02 11:58:41 | 41.19822 | 2.35167 | 126° | 40km/h | 19326m | -11.8m/s | 0°C | 0% | 0hPa | 0V | 00:00:00 | 00:00:00 | 00:00:00 | |
| EA3GEO | 2026-09-02 11:58:31 | 41.19889 | 2.35112 | 153° | 24km/h | 19446m | -12.8m/s | 0°C | 0% | 0hPa | 0V | 00:00:00 | 00:00:00 | 00:00:00 | |
| EA3GEO | 2026-09-02 11:58:25 | 41.19926 | 2.35101 | 192° | 26km/h | 19512m | -1.9m/s | 0°C | 0% | 0hPa | 0V | 00:00:00 | 00:00:00 | 00:00:00 | |
| EA3GEO | 2026-09-02 11:58:19 | 41.19962 | 2.35108 | 170° | 22km/h | 19484m | 3.0m/s | 0°C | 0% | 0hPa | 0V | 00:00:00 | 00:00:00 | 00:00:00 | |
| EA3GEO | 2026-09-02 11:58:13 | 41.20004 | 2.35096 | 176° | 20km/h | 19454m | 4.6m/s | 0°C | 0% | 0hPa | 0V | 00:00:00 | 00:00:00 | 00:00:00 | |
| EA3GEO | 2026-09-02 11:58:07 | 41.20042 | 2.35077 | 153° | 37km/h | 19426m | 6.7m/s | 0°C | 0% | 0hPa | 0V | 00:00:00 | 00:00:00 | 00:00:00 | |
| EA3GEO | 2026-09-02 11:58:01 | 41.20086 | 2.35045 | 152° | 27km/h | 19395m | 4.8m/s | 0°C | 0% | 0hPa | 0V | 00:00:00 | 00:00:00 | 00:00:00 | |
| EA3GEO | 2026-09-02 11:57:56 | 41.20118 | 2.35009 | 137° | 46km/h | 19369m | 2.4m/s | 0°C | 0% | 0hPa | 0V | 00:00:00 | 00:00:00 | 00:00:00 | |
| EA3GEO | 2026-09-02 11:57:50 | 41.20155 | 2.34954 | 141° | 31km/h | 19341m | 3.7m/s | 0°C | 0% | 0hPa | 0V | 00:00:00 | 00:00:00 | 00:00:00 | |
| EA3GEO | 2026-09-02 11:57:45 | 41.20187 | 2.34906 | 129° | 47km/h | 19316m | 4.1m/s | 0°C | 0% | 0hPa | 0V | 00:00:00 | 00:00:00 | 00:00:00 | |
| EA3GEO | 2026-09-02 11:57:39 | 41.20218 | 2.34835 | 116° | 40km/h | 19285m | 5.5m/s | 0°C | 0% | 0hPa | 0V | 00:00:00 | 00:00:00 | 00:00:00 | |
| EA3GEO | 2026-09-02 11:57:33 | 41.20245 | 2.34753 | 101° | 44km/h | 19256m | 4.5m/s | 0°C | 0% | 0hPa | 0V | 00:00:00 | 00:00:00 | 00:00:00 | |
| EA3GEO | 2026-09-02 11:57:27 | 41.20258 | 2.34679 | 120° | 40km/h | 19226m | 6.5m/s | 0°C | 0% | 0hPa | 0V | 00:00:00 | 00:00:00 | 00:00:00 | |
| EA3GEO | 2026-09-02 11:57:22 | 41.20280 | 2.34608 | 94° | 42km/h | 19203m | 5.7m/s | 0°C | 0% | 0hPa | 0V | 00:00:00 | 00:00:00 | 00:00:00 | |
| EA3GEO | 2026-09-02 11:57:16 | 41.20286 | 2.34532 | 110° | 33km/h | 19173m | 4.7m/s | 0°C | 0% | 0hPa | 0V | 00:00:00 | 00:00:00 | 00:00:00 | |
| EA3GEO | 2026-09-02 11:57:10 | 41.20287 | 2.34459 | 80° | 37km/h | 19144m | 5.9m/s | 0°C | 0% | 0hPa | 0V | 00:00:00 | 00:00:00 | 00:00:00 | |
| EA3GEO | 2026-09-02 11:57:00 | 41.20269 | 2.34349 | 75° | 33km/h | 19092m | 4.0m/s | 0°C | 0% | 0hPa | 0V | 00:00:00 | 00:00:00 | 00:00:00 | |
| EA3GEO | 2026-09-02 11:56:54 | 41.20260 | 2.34290 | 76° | 35km/h | 19063m | 5.4m/s | 0°C | 0% | 0hPa | 0V | 00:00:00 | 00:00:00 | 00:00:00 | |
| EA3GEO | 2026-09-02 11:56:49 | 41.20245 | 2.34237 | 70° | 29km/h | 19040m | 5.6m/s | 0°C | 0% | 0hPa | 0V | 00:00:00 | 00:00:00 | 00:00:00 | |
| EA3GEO | 2026-09-02 11:56:43 | 41.20233 | 2.34185 | 71° | 27km/h | 19010m | 4.0m/s | 0°C | 0% | 0hPa | 0V | 00:00:00 | 00:00:00 | 00:00:00 | |
| EA3GEO | 2026-09-02 11:56:37 | 41.20221 | 2.34134 | 83° | 22km/h | 18980m | 5.9m/s | 0°C | 0% | 0hPa | 0V | 00:00:00 | 00:00:00 | 00:00:00 | |
| EA3GEO | 2026-09-02 11:56:32 | 41.20219 | 2.34098 | 78° | 27km/h | 18955m | 4.6m/s | 0°C | 0% | 0hPa | 0V | 00:00:00 | 00:00:00 | 00:00:00 | |
| EA3GEO | 2026-09-02 11:56:26 | 41.20209 | 2.34056 | 84° | 15km/h | 18926m | 5.5m/s | 0°C | 0% | 0hPa | 0V | 00:00:00 | 00:00:00 | 00:00:00 | |
| EA3GEO | 2026-09-02 11:56:20 | 41.20205 | 2.34025 | 81° | 16km/h | 18898m | 3.9m/s | 0°C | 0% | 0hPa | 0V | 00:00:00 | 00:00:00 | 00:00:00 | |
| EA3GEO | 2026-09-02 11:56:15 | 41.20201 | 2.34006 | 47° | 4km/h | 18874m | 4.1m/s | 0°C | 0% | 0hPa | 0V | 00:00:00 | 00:00:00 | 00:00:00 | |
| EA3GEO | 2026-09-02 11:56:09 | 41.20200 | 2.33981 | 94° | 16km/h | 18846m | 5.5m/s | 0°C | 0% | 0hPa | 0V | 00:00:00 | 00:00:00 | 00:00:00 | |
| EA3GEO | 2026-09-02 11:56:03 | 41.20193 | 2.33966 | 28° | 9km/h | 18817m | 4.0m/s | 0°C | 0% | 0hPa | 0V | 00:00:00 | 00:00:00 | 00:00:00 | |
| EA3GEO | 2026-09-02 11:55:58 | 41.20189 | 2.33949 | 82° | 18km/h | 18793m | 3.8m/s | 0°C | 0% | 0hPa | 0V | 00:00:00 | 00:00:00 | 00:00:00 | |
| EA3GEO | 2026-09-02 11:55:53 | 41.20185 | 2.33942 | 354° | 9km/h | 18771m | 3.4m/s | 0°C | 0% | 0hPa | 0V | 00:00:00 | 00:00:00 | 00:00:00 | |
| EA3GEO | 2026-09-02 11:55:47 | 41.20186 | 2.33940 | 41° | 9km/h | 18744m | 3.8m/s | 0°C | 0% | 0hPa | 0V | 00:00:00 | 00:00:00 | 00:00:00 | |
| EA3GEO | 2026-09-02 11:55:42 | 41.20182 | 2.33929 | 16° | 5km/h | 18721m | 4.2m/s | 0°C | 0% | 0hPa | 0V | 00:00:00 | 00:00:00 | 00:00:00 | |
| EA3GEO | 2026-09-02 11:55:36 | 41.20184 | 2.33916 | 115° | 9km/h | 18693m | 5.3m/s | 0°C | 0% | 0hPa | 0V | 00:00:00 | 00:00:00 | 00:00:00 | |
| EA3GEO | 2026-09-02 11:55:31 | 41.20188 | 2.33910 | 95° | 2km/h | 18669m | 5.5m/s | 0°C | 0% | 0hPa | 0V | 00:00:00 | 00:00:00 | 00:00:00 | |
| EA3GEO | 2026-09-02 11:55:26 | 41.20190 | 2.33898 | 117° | 11km/h | 18645m | 5.7m/s | 0°C | 0% | 0hPa | 0V | 00:00:00 | 00:00:00 | 00:00:00 | |
| EA3GEO | 2026-09-02 11:55:20 | 41.20194 | 2.33886 | 98° | 5km/h | 18616m | 4.2m/s | 0°C | 0% | 0hPa | 0V | 00:00:00 | 00:00:00 | 00:00:00 | |
| EA3GEO | 2026-09-02 11:55:14 | 41.20200 | 2.33868 | 108° | 9km/h | 18588m | 5.8m/s | 0°C | 0% | 0hPa | 0V | 00:00:00 | 00:00:00 | 00:00:00 | |
| EA3GEO | 2026-09-02 11:55:03 | 41.20203 | 2.33846 | 174° | 5km/h | 18530m | 4.0m/s | 0°C | 0% | 0hPa | 0V | 00:00:00 | 00:00:00 | 00:00:00 | |
| EA3GEO | 2026-09-02 11:54:57 | 41.20199 | 2.33836 | 32° | 11km/h | 18499m | 4.5m/s | 0°C | 0% | 0hPa | 0V | 00:00:00 | 00:00:00 | 00:00:00 | |
| EA3GEO | 2026-09-02 11:54:50 | 41.20191 | 2.33828 | 45° | 15km/h | 18464m | 6.4m/s | 0°C | 0% | 0hPa | 0V | 00:00:00 | 00:00:00 | 00:00:00 | |
| EA3GEO | 2026-09-02 11:54:42 | 41.20162 | 2.33806 | 25° | 18km/h | 18423m | 5.2m/s | 0°C | 0% | 0hPa | 0V | 00:00:00 | 00:00:00 | 00:00:00 | |
| EA3GEO | 2026-09-02 11:54:36 | 41.20129 | 2.33793 | 17° | 22km/h | 18390m | 6.7m/s | 0°C | 0% | 0hPa | 0V | 00:00:00 | 00:00:00 | 00:00:00 | |
| EA3GEO | 2026-09-02 11:54:29 | 41.20097 | 2.33766 | 18° | 29km/h | 18356m | 4.0m/s | 0°C | 0% | 0hPa | 0V | 00:00:00 | 00:00:00 | 00:00:00 | |
| EA3GEO | 2026-09-02 11:54:20 | 41.20032 | 2.33742 | 9° | 26km/h | 18307m | 5.0m/s | 0°C | 0% | 0hPa | 0V | 00:00:00 | 00:00:00 | 00:00:00 | |
| EA3GEO | 2026-09-02 11:54:14 | 41.19992 | 2.33737 | 358° | 26km/h | 18275m | 6.5m/s | 0°C | 0% | 0hPa | 0V | 00:00:00 | 00:00:00 | 00:00:00 | |
| EA3GEO | 2026-09-02 11:54:08 | 41.19957 | 2.33730 | 13° | 27km/h | 18243m | 6.1m/s | 0°C | 0% | 0hPa | 0V | 00:00:00 | 00:00:00 | 00:00:00 | |
| EA3GEO | 2026-09-02 11:54:03 | 41.19929 | 2.33726 | 357° | 20km/h | 18215m | 6.5m/s | 0°C | 0% | 0hPa | 0V | 00:00:00 | 00:00:00 | 00:00:00 | |
| EA3GEO | 2026-09-02 11:53:57 | 41.19892 | 2.33719 | 22° | 26km/h | 18185m | 6.5m/s | 0°C | 0% | 0hPa | 0V | 00:00:00 | 00:00:00 | 00:00:00 | |
| EA3GEO | 2026-09-02 11:53:52 | 41.19869 | 2.33719 | 14° | 20km/h | 18154m | 5.7m/s | 0°C | 0% | 0hPa | 0V | 00:00:00 | 00:00:00 | 00:00:00 | |
| EA3GEO | 2026-09-02 11:53:46 | 41.19838 | 2.33724 | 342° | 27km/h | 18116m | 5.1m/s | 0°C | 0% | 0hPa | 0V | 00:00:00 | 00:00:00 | 00:00:00 | |
| EA3GEO | 2026-09-02 11:53:40 | 41.19826 | 2.33725 | 44° | 26km/h | 18075m | 6.3m/s | 0°C | 0% | 0hPa | 0V | 00:00:00 | 00:00:00 | 00:00:00 | |
| EA3GEO | 2026-09-02 11:53:35 | 41.19814 | 2.33730 | 266° | 16km/h | 18044m | 6.6m/s | 0°C | 0% | 0hPa | 0V | 00:00:00 | 00:00:00 | 00:00:00 | |
| EA3GEO | 2026-09-02 11:53:29 | 41.19792 | 2.33725 | 69° | 16km/h | 18010m | 9.0m/s | 0°C | 0% | 0hPa | 0V | 00:00:00 | 00:00:00 | 00:00:00 | |
| EA3GEO | 2026-09-02 11:53:24 | 41.19803 | 2.33739 | 283° | 24km/h | 17982m | 3.5m/s | 0°C | 0% | 0hPa | 0V | 00:00:00 | 00:00:00 | 00:00:00 | |
| EA3GEO | 2026-09-02 11:53:18 | 41.19798 | 2.33712 | 167° | 26km/h | 17933m | 6.6m/s | 0°C | 0% | 0hPa | 0V | 00:00:00 | 00:00:00 | 00:00:00 | |
| EA3GEO | 2026-09-02 11:53:13 | 41.19801 | 2.33709 | 23° | 16km/h | 17899m | 6.2m/s | 0°C | 0% | 0hPa | 0V | 00:00:00 | 00:00:00 | 00:00:00 | |
| EA3GEO | 2026-09-02 11:53:08 | 41.19804 | 2.33698 | 117° | 9km/h | 17870m | 4.8m/s | 0°C | 0% | 0hPa | 0V | 00:00:00 | 00:00:00 | 00:00:00 | |
| EA3GEO | 2026-09-02 11:53:03 | 41.19817 | 2.33697 | 165° | 11km/h | 17843m | 6.9m/s | 0°C | 0% | 0hPa | 0V | 00:00:00 | 00:00:00 | 00:00:00 | |
| EA3GEO | 2026-09-02 11:52:57 | 41.19840 | 2.33647 | 133° | 22km/h | 17811m | 8.4m/s | 0°C | 0% | 0hPa | 0V | 00:00:00 | 00:00:00 | 00:00:00 | |
| EA3GEO | 2026-09-02 11:52:52 | 41.19856 | 2.33642 | 146° | 27km/h | 17780m | 4.3m/s | 0°C | 0% | 0hPa | 0V | 00:00:00 | 00:00:00 | 00:00:00 | |
| EA3GEO | 2026-09-02 11:52:47 | 41.19884 | 2.33611 | 139° | 26km/h | 17752m | 6.4m/s | 0°C | 0% | 0hPa | 0V | 00:00:00 | 00:00:00 | 00:00:00 | |
| EA3GEO | 2026-09-02 11:52:41 | 41.19913 | 2.33567 | 125° | 44km/h | 17721m | 4.1m/s | 0°C | 0% | 0hPa | 0V | 00:00:00 | 00:00:00 | 00:00:00 | |
| EA3GEO | 2026-09-02 11:52:34 | 41.19954 | 2.33494 | 127° | 37km/h | 17687m | 3.9m/s | 0°C | 0% | 0hPa | 0V | 00:00:00 | 00:00:00 | 00:00:00 | |
| EA3GEO | 2026-09-02 11:52:29 | 41.19986 | 2.33431 | 121° | 60km/h | 17662m | 5.7m/s | 0°C | 0% | 0hPa | 0V | 00:00:00 | 00:00:00 | 00:00:00 | |
| EA3GEO | 2026-09-02 11:52:23 | 41.20029 | 2.33345 | 130° | 44km/h | 17635m | 3.8m/s | 0°C | 0% | 0hPa | 0V | 00:00:00 | 00:00:00 | 00:00:00 | |
| EA3GEO | 2026-09-02 11:52:17 | 41.20071 | 2.33258 | 122° | 57km/h | 17609m | 4.9m/s | 0°C | 0% | 0hPa | 0V | 00:00:00 | 00:00:00 | 00:00:00 | |
| EA3GEO | 2026-09-02 11:52:12 | 41.20104 | 2.33191 | 118° | 40km/h | 17586m | 4.5m/s | 0°C | 0% | 0hPa | 0V | 00:00:00 | 00:00:00 | 00:00:00 | |
| EA3GEO | 2026-09-02 11:52:06 | 41.20140 | 2.33120 | 128° | 46km/h | 17560m | 5.4m/s | 0°C | 0% | 0hPa | 0V | 00:00:00 | 00:00:00 | 00:00:00 | |
| EA3GEO | 2026-09-02 11:52:01 | 41.20167 | 2.33065 | 129° | 40km/h | 17538m | 5.1m/s | 0°C | 0% | 0hPa | 0V | 00:00:00 | 00:00:00 | 00:00:00 | |
| EA3GEO | 2026-09-02 11:51:56 | 41.20199 | 2.33016 | 135° | 33km/h | 17515m | 5.0m/s | 0°C | 0% | 0hPa | 0V | 00:00:00 | 00:00:00 | 00:00:00 | |
| EA3GEO | 2026-09-02 11:51:51 | 41.20225 | 2.32974 | 134° | 35km/h | 17493m | 3.6m/s | 0°C | 0% | 0hPa | 0V | 00:00:00 | 00:00:00 | 00:00:00 | |
| EA3GEO | 2026-09-02 11:51:45 | 41.20254 | 2.32919 | 123° | 29km/h | 17465m | 5.1m/s | 0°C | 0% | 0hPa | 0V | 00:00:00 | 00:00:00 | 00:00:00 | |
| EA3GEO | 2026-09-02 11:51:39 | 41.20284 | 2.32866 | 128° | 46km/h | 17436m | 5.9m/s | 0°C | 0% | 0hPa | 0V | 00:00:00 | 00:00:00 | 00:00:00 | |
| EA3GEO | 2026-09-02 11:51:34 | 41.20309 | 2.32808 | 121° | 27km/h | 17415m | 4.4m/s | 0°C | 0% | 0hPa | 0V | 00:00:00 | 00:00:00 | 00:00:00 | |
| EA3GEO | 2026-09-02 11:51:28 | 41.20340 | 2.32744 | 126° | 46km/h | 17389m | 4.5m/s | 0°C | 0% | 0hPa | 0V | 00:00:00 | 00:00:00 | 00:00:00 | |
| EA3GEO | 2026-09-02 11:51:22 | 41.20375 | 2.32681 | 125° | 37km/h | 17363m | 5.9m/s | 0°C | 0% | 0hPa | 0V | 00:00:00 | 00:00:00 | 00:00:00 | |
| EA3GEO | 2026-09-02 11:51:16 | 41.20403 | 2.32605 | 121° | 42km/h | 17335m | 4.7m/s | 0°C | 0% | 0hPa | 0V | 00:00:00 | 00:00:00 | 00:00:00 | |
| EA3GEO | 2026-09-02 11:51:10 | 41.20431 | 2.32546 | 115° | 38km/h | 17307m | 3.4m/s | 0°C | 0% | 0hPa | 0V | 00:00:00 | 00:00:00 | 00:00:00 | |
| EA3GEO | 2026-09-02 11:51:05 | 41.20452 | 2.32478 | 122° | 40km/h | 17283m | 3.7m/s | 0°C | 0% | 0hPa | 0V | 00:00:00 | 00:00:00 | 00:00:00 | |
| EA3GEO | 2026-09-02 11:50:59 | 41.20473 | 2.32415 | 109° | 40km/h | 17253m | 3.8m/s | 0°C | 0% | 0hPa | 0V | 00:00:00 | 00:00:00 | 00:00:00 | |
| EA3GEO | 2026-09-02 11:50:53 | 41.20495 | 2.32344 | 117° | 35km/h | 17224m | 5.8m/s | 0°C | 0% | 0hPa | 0V | 00:00:00 | 00:00:00 | 00:00:00 | |
| EA3GEO | 2026-09-02 11:50:47 | 41.20518 | 2.32276 | 120° | 40km/h | 17194m | 6.3m/s | 0°C | 0% | 0hPa | 0V | 00:00:00 | 00:00:00 | 00:00:00 | |
| EA3GEO | 2026-09-02 11:50:41 | 41.20552 | 2.32211 | 115° | 46km/h | 17166m | 4.8m/s | 0°C | 0% | 0hPa | 0V | 00:00:00 | 00:00:00 | 00:00:00 | |
| EA3GEO | 2026-09-02 11:50:35 | 41.20586 | 2.32137 | 131° | 46km/h | 17136m | 5.9m/s | 0°C | 0% | 0hPa | 0V | 00:00:00 | 00:00:00 | 00:00:00 | |
| EA3GEO | 2026-09-02 11:50:29 | 41.20624 | 2.32060 | 118° | 42km/h | 17106m | 4.9m/s | 0°C | 0% | 0hPa | 0V | 00:00:00 | 00:00:00 | 00:00:00 | |
| EA3GEO | 2026-09-02 11:50:24 | 41.20654 | 2.31999 | 134° | 44km/h | 17081m | 3.8m/s | 0°C | 0% | 0hPa | 0V | 00:00:00 | 00:00:00 | 00:00:00 | |
| EA3GEO | 2026-09-02 11:50:18 | 41.20692 | 2.31923 | 114° | 46km/h | 17052m | 5.8m/s | 0°C | 0% | 0hPa | 0V | 00:00:00 | 00:00:00 | 00:00:00 | |
| EA3GEO | 2026-09-02 11:50:12 | 41.20727 | 2.31839 | 120° | 47km/h | 17023m | 5.6m/s | 0°C | 0% | 0hPa | 0V | 00:00:00 | 00:00:00 | 00:00:00 | |
| EA3GEO | 2026-09-02 11:50:07 | 41.20749 | 2.31772 | 109° | 42km/h | 16999m | 5.7m/s | 0°C | 0% | 0hPa | 0V | 00:00:00 | 00:00:00 | 00:00:00 | |
| EA3GEO | 2026-09-02 11:50:01 | 41.20782 | 2.31677 | 118° | 53km/h | 16969m | 4.2m/s | 0°C | 0% | 0hPa | 0V | 00:00:00 | 00:00:00 | 00:00:00 | |
| EA3GEO | 2026-09-02 11:49:56 | 41.20804 | 2.31600 | 113° | 44km/h | 16942m | 4.8m/s | 0°C | 0% | 0hPa | 0V | 00:00:00 | 00:00:00 | 00:00:00 | |
| EA3GEO | 2026-09-02 11:49:50 | 41.20836 | 2.31498 | 116° | 58km/h | 16911m | 6.3m/s | 0°C | 0% | 0hPa | 0V | 00:00:00 | 00:00:00 | 00:00:00 | |
| EA3GEO | 2026-09-02 11:49:45 | 41.20857 | 2.31419 | 102° | 49km/h | 16884m | 5.4m/s | 0°C | 0% | 0hPa | 0V | 00:00:00 | 00:00:00 | 00:00:00 | |
| EA3GEO | 2026-09-02 11:49:39 | 41.20882 | 2.31308 | 111° | 57km/h | 16852m | 6.9m/s | 0°C | 0% | 0hPa | 0V | 00:00:00 | 00:00:00 | 00:00:00 | |
| EA3GEO | 2026-09-02 11:49:33 | 41.20903 | 2.31203 | 105° | 58km/h | 16819m | 6.1m/s | 0°C | 0% | 0hPa | 0V | 00:00:00 | 00:00:00 | 00:00:00 | |
| EA3GEO | 2026-09-02 11:49:28 | 41.20924 | 2.31111 | 105° | 53km/h | 16793m | 6.6m/s | 0°C | 0% | 0hPa | 0V | 00:00:00 | 00:00:00 | 00:00:00 | |
| EA3GEO | 2026-09-02 11:49:23 | 41.20937 | 2.31027 | 105° | 49km/h | 16768m | 6.0m/s | 0°C | 0% | 0hPa | 0V | 00:00:00 | 00:00:00 | 00:00:00 | |
| EA3GEO | 2026-09-02 11:49:17 | 41.20951 | 2.30920 | 100° | 53km/h | 16735m | 4.7m/s | 0°C | 0% | 0hPa | 0V | 00:00:00 | 00:00:00 | 00:00:00 | |
| EA3GEO | 2026-09-02 11:49:11 | 41.20963 | 2.30818 | 100° | 51km/h | 16703m | 6.0m/s | 0°C | 0% | 0hPa | 0V | 00:00:00 | 00:00:00 | 00:00:00 | |
| EA3GEO | 2026-09-02 11:49:05 | 41.20970 | 2.30718 | 103° | 44km/h | 16672m | 4.7m/s | 0°C | 0% | 0hPa | 0V | 00:00:00 | 00:00:00 | 00:00:00 | |
| EA3GEO | 2026-09-02 11:49:00 | 41.20982 | 2.30641 | 99° | 51km/h | 16646m | 6.3m/s | 0°C | 0% | 0hPa | 0V | 00:00:00 | 00:00:00 | 00:00:00 | |
| EA3GEO | 2026-09-02 11:48:54 | 41.20990 | 2.30544 | 95° | 46km/h | 16613m | 3.8m/s | 0°C | 0% | 0hPa | 0V | 00:00:00 | 00:00:00 | 00:00:00 | |
| EA3GEO | 2026-09-02 11:48:48 | 41.20997 | 2.30451 | 101° | 46km/h | 16582m | 3.8m/s | 0°C | 0% | 0hPa | 0V | 00:00:00 | 00:00:00 | 00:00:00 | |
| EA3GEO | 2026-09-02 11:48:43 | 41.21003 | 2.30375 | 99° | 46km/h | 16556m | 6.5m/s | 0°C | 0% | 0hPa | 0V | 00:00:00 | 00:00:00 | 00:00:00 | |
| EA3GEO | 2026-09-02 11:48:37 | 41.21008 | 2.30290 | 87° | 49km/h | 16526m | 4.6m/s | 0°C | 0% | 0hPa | 0V | 00:00:00 | 00:00:00 | 00:00:00 | |
| EA3GEO | 2026-09-02 11:48:32 | 41.21012 | 2.30219 | 94° | 42km/h | 16500m | 3.8m/s | 0°C | 0% | 0hPa | 0V | 00:00:00 | 00:00:00 | 00:00:00 | |
| EA3GEO | 2026-09-02 11:48:20 | 41.21012 | 2.30049 | 91° | 38km/h | 16439m | 4.4m/s | 0°C | 0% | 0hPa | 0V | 00:00:00 | 00:00:00 | 00:00:00 | |
| EA3GEO | 2026-09-02 11:48:15 | 41.21012 | 2.29977 | 92° | 37km/h | 16414m | 4.9m/s | 0°C | 0% | 0hPa | 0V | 00:00:00 | 00:00:00 | 00:00:00 | |
| EA3GEO | 2026-09-02 11:48:09 | 41.21014 | 2.29896 | 92° | 44km/h | 16381m | 6.2m/s | 0°C | 0% | 0hPa | 0V | 00:00:00 | 00:00:00 | 00:00:00 | |
| EA3GEO | 2026-09-02 11:48:03 | 41.21013 | 2.29816 | 91° | 38km/h | 16351m | 5.4m/s | 0°C | 0% | 0hPa | 0V | 00:00:00 | 00:00:00 | 00:00:00 | |
| EA3GEO | 2026-09-02 11:47:58 | 41.21021 | 2.29751 | 105° | 38km/h | 16326m | 5.7m/s | 0°C | 0% | 0hPa | 0V | 00:00:00 | 00:00:00 | 00:00:00 | |
| EA3GEO | 2026-09-02 11:47:53 | 41.21038 | 2.29677 | 112° | 42km/h | 16296m | 3.5m/s | 0°C | 0% | 0hPa | 0V | 00:00:00 | 00:00:00 | 00:00:00 | |
| EA3GEO | 2026-09-02 11:47:46 | 41.21056 | 2.29596 | 107° | 38km/h | 16267m | 4.7m/s | 0°C | 0% | 0hPa | 0V | 00:00:00 | 00:00:00 | 00:00:00 | |
| EA3GEO | 2026-09-02 11:47:41 | 41.21078 | 2.29534 | 113° | 51km/h | 16242m | 4.0m/s | 0°C | 0% | 0hPa | 0V | 00:00:00 | 00:00:00 | 00:00:00 | |
| EA3GEO | 2026-09-02 11:47:35 | 41.21108 | 2.29444 | 120° | 44km/h | 16212m | 4.0m/s | 0°C | 0% | 0hPa | 0V | 00:00:00 | 00:00:00 | 00:00:00 | |
| EA3GEO | 2026-09-02 11:47:29 | 41.21143 | 2.29349 | 113° | 58km/h | 16181m | 5.0m/s | 0°C | 0% | 0hPa | 0V | 00:00:00 | 00:00:00 | 00:00:00 | |
| EA3GEO | 2026-09-02 11:47:24 | 41.21170 | 2.29274 | 116° | 46km/h | 16157m | 3.4m/s | 0°C | 0% | 0hPa | 0V | 00:00:00 | 00:00:00 | 00:00:00 | |
| EA3GEO | 2026-09-02 11:47:18 | 41.21205 | 2.29173 | 115° | 58km/h | 16129m | 5.0m/s | 0°C | 0% | 0hPa | 0V | 00:00:00 | 00:00:00 | 00:00:00 | |
| EA3GEO | 2026-09-02 11:47:13 | 41.21231 | 2.29093 | 117° | 51km/h | 16104m | 3.4m/s | 0°C | 0% | 0hPa | 0V | 00:00:00 | 00:00:00 | 00:00:00 | |
| EA3GEO | 2026-09-02 11:47:07 | 41.21256 | 2.28990 | 107° | 51km/h | 16074m | 4.0m/s | 0°C | 0% | 0hPa | 0V | 00:00:00 | 00:00:00 | 00:00:00 | |
| EA3GEO | 2026-09-02 11:47:01 | 41.21286 | 2.28895 | 112° | 57km/h | 16044m | 5.6m/s | 0°C | 0% | 0hPa | 0V | 00:00:00 | 00:00:00 | 00:00:00 | |
| EA3GEO | 2026-09-02 11:46:55 | 41.21313 | 2.28791 | 112° | 47km/h | 16015m | 5.6m/s | 0°C | 0% | 0hPa | 0V | 00:00:00 | 00:00:00 | 00:00:00 | |
| EA3GEO | 2026-09-02 11:46:49 | 41.21342 | 2.28695 | 107° | 60km/h | 15988m | 4.3m/s | 0°C | 0% | 0hPa | 0V | 00:00:00 | 00:00:00 | 00:00:00 | |
| EA3GEO | 2026-09-02 11:46:43 | 41.21369 | 2.28579 | 117° | 55km/h | 15961m | 4.4m/s | 0°C | 0% | 0hPa | 0V | 00:00:00 | 00:00:00 | 00:00:00 | |
| EA3GEO | 2026-09-02 11:46:38 | 41.21397 | 2.28491 | 108° | 68km/h | 15939m | 3.1m/s | 0°C | 0% | 0hPa | 0V | 00:00:00 | 00:00:00 | 00:00:00 | |
| EA3GEO | 2026-09-02 11:46:32 | 41.21418 | 2.28371 | 106° | 53km/h | 15910m | 4.5m/s | 0°C | 0% | 0hPa | 0V | 00:00:00 | 00:00:00 | 00:00:00 | |
| EA3GEO | 2026-09-02 11:46:27 | 41.21436 | 2.28273 | 102° | 66km/h | 15885m | 5.0m/s | 0°C | 0% | 0hPa | 0V | 00:00:00 | 00:00:00 | 00:00:00 | |
| EA3GEO | 2026-09-02 11:46:21 | 41.21453 | 2.28150 | 104° | 57km/h | 15855m | 3.9m/s | 0°C | 0% | 0hPa | 0V | 00:00:00 | 00:00:00 | 00:00:00 | |
| EA3GEO | 2026-09-02 11:46:15 | 41.21469 | 2.28030 | 95° | 58km/h | 15827m | 4.4m/s | 0°C | 0% | 0hPa | 0V | 00:00:00 | 00:00:00 | 00:00:00 | |
| EA3GEO | 2026-09-02 11:46:09 | 41.21476 | 2.27914 | 103° | 55km/h | 15796m | 4.2m/s | 0°C | 0% | 0hPa | 0V | 00:00:00 | 00:00:00 | 00:00:00 | |
| EA3GEO | 2026-09-02 11:46:04 | 41.21485 | 2.27823 | 99° | 62km/h | 15773m | 4.7m/s | 0°C | 0% | 0hPa | 0V | 00:00:00 | 00:00:00 | 00:00:00 | |
| EA3GEO | 2026-09-02 11:45:58 | 41.21490 | 2.27710 | 92° | 51km/h | 15744m | 6.5m/s | 0°C | 0% | 0hPa | 0V | 00:00:00 | 00:00:00 | 00:00:00 | |
| EA3GEO | 2026-09-02 11:45:53 | 41.21501 | 2.27623 | 99° | 55km/h | 15720m | 3.6m/s | 0°C | 0% | 0hPa | 0V | 00:00:00 | 00:00:00 | 00:00:00 | |
| EA3GEO | 2026-09-02 11:45:47 | 41.21508 | 2.27519 | 100° | 47km/h | 15691m | 5.6m/s | 0°C | 0% | 0hPa | 0V | 00:00:00 | 00:00:00 | 00:00:00 | |
| EA3GEO | 2026-09-02 11:45:42 | 41.21519 | 2.27433 | 98° | 49km/h | 15665m | 5.3m/s | 0°C | 0% | 0hPa | 0V | 00:00:00 | 00:00:00 | 00:00:00 | |
| EA3GEO | 2026-09-02 11:45:37 | 41.21528 | 2.27355 | 102° | 49km/h | 15641m | 6.4m/s | 0°C | 0% | 0hPa | 0V | 00:00:00 | 00:00:00 | 00:00:00 | |
| EA3GEO | 2026-09-02 11:45:31 | 41.21542 | 2.27250 | 100° | 47km/h | 15611m | 5.2m/s | 0°C | 0% | 0hPa | 0V | 00:00:00 | 00:00:00 | 00:00:00 | |
| EA3GEO | 2026-09-02 11:45:26 | 41.21556 | 2.27167 | 101° | 57km/h | 15588m | 5.9m/s | 0°C | 0% | 0hPa | 0V | 00:00:00 | 00:00:00 | 00:00:00 | |
| EA3GEO | 2026-09-02 11:45:21 | 41.21571 | 2.27073 | 105° | 58km/h | 15567m | 5.7m/s | 0°C | 0% | 0hPa | 0V | 00:00:00 | 00:00:00 | 00:00:00 | |
| EA3GEO | 2026-09-02 11:45:15 | 41.21596 | 2.26967 | 106° | 58km/h | 15538m | 3.6m/s | 0°C | 0% | 0hPa | 0V | 00:00:00 | 00:00:00 | 00:00:00 | |
| EA3GEO | 2026-09-02 11:45:08 | 41.21625 | 2.26834 | 115° | 55km/h | 15506m | 6.1m/s | 0°C | 0% | 0hPa | 0V | 00:00:00 | 00:00:00 | 00:00:00 | |
| EA3GEO | 2026-09-02 11:44:56 | 41.21686 | 2.26604 | 114° | 58km/h | 15448m | 3.1m/s | 0°C | 0% | 0hPa | 0V | 00:00:00 | 00:00:00 | 00:00:00 | |
| EA3GEO | 2026-09-02 11:44:50 | 41.21729 | 2.26476 | 112° | 73km/h | 15418m | 5.7m/s | 0°C | 0% | 0hPa | 0V | 00:00:00 | 00:00:00 | 00:00:00 | |
| EA3GEO | 2026-09-02 11:44:45 | 41.21759 | 2.26356 | 117° | 62km/h | 15391m | 3.8m/s | 0°C | 0% | 0hPa | 0V | 00:00:00 | 00:00:00 | 00:00:00 | |
| EA3GEO | 2026-09-02 11:44:38 | 41.21794 | 2.26238 | 106° | 58km/h | 15363m | 6.0m/s | 0°C | 0% | 0hPa | 0V | 00:00:00 | 00:00:00 | 00:00:00 | |
| EA3GEO | 2026-09-02 11:44:32 | 41.21823 | 2.26134 | 114° | 64km/h | 15334m | 5.8m/s | 0°C | 0% | 0hPa | 0V | 00:00:00 | 00:00:00 | 00:00:00 | |
| EA3GEO | 2026-09-02 11:44:27 | 41.21845 | 2.26034 | 103° | 57km/h | 15312m | 5.1m/s | 0°C | 0% | 0hPa | 0V | 00:00:00 | 00:00:00 | 00:00:00 | |
| EA3GEO | 2026-09-02 11:44:21 | 41.21866 | 2.25925 | 105° | 58km/h | 15285m | 4.7m/s | 0°C | 0% | 0hPa | 0V | 00:00:00 | 00:00:00 | 00:00:00 | |
| EA3GEO | 2026-09-02 11:44:16 | 41.21884 | 2.25827 | 109° | 57km/h | 15261m | 4.2m/s | 0°C | 0% | 0hPa | 0V | 00:00:00 | 00:00:00 | 00:00:00 | |
| EA3GEO | 2026-09-02 11:44:11 | 41.21906 | 2.25743 | 108° | 49km/h | 15237m | 5.6m/s | 0°C | 0% | 0hPa | 0V | 00:00:00 | 00:00:00 | 00:00:00 | |
| EA3GEO | 2026-09-02 11:44:05 | 41.21927 | 2.25642 | 107° | 58km/h | 15210m | 5.7m/s | 0°C | 0% | 0hPa | 0V | 00:00:00 | 00:00:00 | 00:00:00 | |
| EA3GEO | 2026-09-02 11:44:00 | 41.21944 | 2.25554 | 110° | 47km/h | 15186m | 5.3m/s | 0°C | 0% | 0hPa | 0V | 00:00:00 | 00:00:00 | 00:00:00 | |
| EA3GEO | 2026-09-02 11:43:54 | 41.21965 | 2.25453 | 102° | 57km/h | 15159m | 6.0m/s | 0°C | 0% | 0hPa | 0V | 00:00:00 | 00:00:00 | 00:00:00 | |
| EA3GEO | 2026-09-02 11:43:48 | 41.21980 | 2.25350 | 100° | 49km/h | 15132m | 6.1m/s | 0°C | 0% | 0hPa | 0V | 00:00:00 | 00:00:00 | 00:00:00 | |
| EA3GEO | 2026-09-02 11:43:43 | 41.21986 | 2.25263 | 100° | 47km/h | 15108m | 5.5m/s | 0°C | 0% | 0hPa | 0V | 00:00:00 | 00:00:00 | 00:00:00 | |
| EA3GEO | 2026-09-02 11:43:37 | 41.22000 | 2.25153 | 93° | 60km/h | 15079m | 5.6m/s | 0°C | 0% | 0hPa | 0V | 00:00:00 | 00:00:00 | 00:00:00 | |
| EA3GEO | 2026-09-02 11:43:32 | 41.22004 | 2.25061 | 96° | 51km/h | 15057m | 4.3m/s | 0°C | 0% | 0hPa | 0V | 00:00:00 | 00:00:00 | 00:00:00 | |
| EA3GEO | 2026-09-02 11:43:26 | 41.22013 | 2.24955 | 81° | 47km/h | 15027m | 2.5m/s | 0°C | 0% | 0hPa | 0V | 00:00:00 | 00:00:00 | 00:00:00 | |
| EA3GEO | 2026-09-02 11:43:20 | 41.22018 | 2.24863 | 99° | 42km/h | 14994m | 7.1m/s | 0°C | 0% | 0hPa | 0V | 00:00:00 | 00:00:00 | 00:00:00 | |
| EA3GEO | 2026-09-02 11:43:14 | 41.22019 | 2.24769 | 81° | 55km/h | 14960m | 5.7m/s | 0°C | 0% | 0hPa | 0V | 00:00:00 | 00:00:00 | 00:00:00 | |
| EA3GEO | 2026-09-02 11:43:08 | 41.22026 | 2.24677 | 104° | 49km/h | 14928m | 2.6m/s | 0°C | 0% | 0hPa | 0V | 00:00:00 | 00:00:00 | 00:00:00 | |
| EA3GEO | 2026-09-02 11:43:03 | 41.22027 | 2.24594 | 89° | 44km/h | 14900m | 1.7m/s | 0°C | 0% | 0hPa | 0V | 00:00:00 | 00:00:00 | 00:00:00 | |
| EA3GEO | 2026-09-02 11:42:57 | 41.22039 | 2.24503 | 97° | 46km/h | 14867m | 6.8m/s | 0°C | 0% | 0hPa | 0V | 00:00:00 | 00:00:00 | 00:00:00 | |
| EA3GEO | 2026-09-02 11:42:52 | 41.22046 | 2.24433 | 111° | 49km/h | 14840m | 5.2m/s | 0°C | 0% | 0hPa | 0V | 00:00:00 | 00:00:00 | 00:00:00 | |
| EA3GEO | 2026-09-02 11:42:47 | 41.22056 | 2.24356 | 93° | 44km/h | 14815m | 4.7m/s | 0°C | 0% | 0hPa | 0V | 00:00:00 | 00:00:00 | 00:00:00 | |
| EA3GEO | 2026-09-02 11:42:41 | 41.22072 | 2.24268 | 121° | 53km/h | 14786m | 4.2m/s | 0°C | 0% | 0hPa | 0V | 00:00:00 | 00:00:00 | 00:00:00 | |
| EA3GEO | 2026-09-02 11:42:35 | 41.22081 | 2.24180 | 101° | 37km/h | 14756m | 5.6m/s | 0°C | 0% | 0hPa | 0V | 00:00:00 | 00:00:00 | 00:00:00 | |
| EA3GEO | 2026-09-02 11:42:29 | 41.22103 | 2.24101 | 108° | 47km/h | 14727m | 5.4m/s | 0°C | 0% | 0hPa | 0V | 00:00:00 | 00:00:00 | 00:00:00 | |
| EA3GEO | 2026-09-02 11:42:24 | 41.22112 | 2.24026 | 115° | 40km/h | 14707m | 4.2m/s | 0°C | 0% | 0hPa | 0V | 00:00:00 | 00:00:00 | 00:00:00 | |
| EA3GEO | 2026-09-02 11:42:18 | 41.22138 | 2.23958 | 93° | 44km/h | 14678m | 6.2m/s | 0°C | 0% | 0hPa | 0V | 00:00:00 | 00:00:00 | 00:00:00 | |
| EA3GEO | 2026-09-02 11:42:13 | 41.22156 | 2.23884 | 131° | 55km/h | 14655m | 5.9m/s | 0°C | 0% | 0hPa | 0V | 00:00:00 | 00:00:00 | 00:00:00 | |
| EA3GEO | 2026-09-02 11:42:07 | 41.22186 | 2.23802 | 116° | 47km/h | 14623m | 6.2m/s | 0°C | 0% | 0hPa | 0V | 00:00:00 | 00:00:00 | 00:00:00 | |
| EA3GEO | 2026-09-02 11:42:02 | 41.22216 | 2.23741 | 132° | 51km/h | 14596m | 4.0m/s | 0°C | 0% | 0hPa | 0V | 00:00:00 | 00:00:00 | 00:00:00 | |
| EA3GEO | 2026-09-02 11:41:56 | 41.22263 | 2.23665 | 127° | 49km/h | 14571m | 6.2m/s | 0°C | 0% | 0hPa | 0V | 00:00:00 | 00:00:00 | 00:00:00 | |
| EA3GEO | 2026-09-02 11:41:50 | 41.22297 | 2.23583 | 117° | 42km/h | 14545m | 4.5m/s | 0°C | 0% | 0hPa | 0V | 00:00:00 | 00:00:00 | 00:00:00 | |
| EA3GEO | 2026-09-02 11:41:45 | 41.22329 | 2.23522 | 133° | 46km/h | 14522m | 5.8m/s | 0°C | 0% | 0hPa | 0V | 00:00:00 | 00:00:00 | 00:00:00 | |
| EA3GEO | 2026-09-02 11:41:39 | 41.22359 | 2.23443 | 121° | 46km/h | 14492m | 4.9m/s | 0°C | 0% | 0hPa | 0V | 00:00:00 | 00:00:00 | 00:00:00 | |
| EA3GEO | 2026-09-02 11:41:34 | 41.22390 | 2.23383 | 124° | 40km/h | 14470m | 5.8m/s | 0°C | 0% | 0hPa | 0V | 00:00:00 | 00:00:00 | 00:00:00 | |
| EA3GEO | 2026-09-02 11:41:29 | 41.22411 | 2.23332 | 127° | 35km/h | 14445m | 5.7m/s | 0°C | 0% | 0hPa | 0V | 00:00:00 | 00:00:00 | 00:00:00 | |
| EA3GEO | 2026-09-02 11:41:23 | 41.22451 | 2.23255 | 121° | 37km/h | 14415m | 5.6m/s | 0°C | 0% | 0hPa | 0V | 00:00:00 | 00:00:00 | 00:00:00 | |
| EA3GEO | 2026-09-02 11:41:18 | 41.22476 | 2.23210 | 147° | 31km/h | 14382m | 3.2m/s | 0°C | 0% | 0hPa | 0V | 00:00:00 | 00:00:00 | 00:00:00 | |
| EA3GEO | 2026-09-02 11:41:13 | 41.22514 | 2.23173 | 139° | 40km/h | 14352m | 7.8m/s | 0°C | 0% | 0hPa | 0V | 00:00:00 | 00:00:00 | 00:00:00 | |
| EA3GEO | 2026-09-02 11:41:07 | 41.22556 | 2.23129 | 155° | 51km/h | 14322m | 5.0m/s | 0°C | 0% | 0hPa | 0V | 00:00:00 | 00:00:00 | 00:00:00 | |
| EA3GEO | 2026-09-02 11:41:02 | 41.22610 | 2.23099 | 171° | 40km/h | 14296m | 6.5m/s | 0°C | 0% | 0hPa | 0V | 00:00:00 | 00:00:00 | 00:00:00 | |
| EA3GEO | 2026-09-02 11:40:57 | 41.22668 | 2.23077 | 155° | 49km/h | 14270m | 6.7m/s | 0°C | 0% | 0hPa | 0V | 00:00:00 | 00:00:00 | 00:00:00 | |
| EA3GEO | 2026-09-02 11:40:51 | 41.22737 | 2.23040 | 168° | 58km/h | 14240m | 4.6m/s | 0°C | 0% | 0hPa | 0V | 00:00:00 | 00:00:00 | 00:00:00 | |
| EA3GEO | 2026-09-02 11:40:45 | 41.22811 | 2.23005 | 162° | 47km/h | 14206m | 9.3m/s | 0°C | 0% | 0hPa | 0V | 00:00:00 | 00:00:00 | 00:00:00 | |
| EA3GEO | 2026-09-02 11:40:40 | 41.22879 | 2.22972 | 161° | 62km/h | 14176m | 10.0m/s | 0°C | 0% | 0hPa | 0V | 00:00:00 | 00:00:00 | 00:00:00 | |
| EA3GEO | 2026-09-02 11:40:35 | 41.22944 | 2.22951 | 174° | 44km/h | 14148m | 9.1m/s | 0°C | 0% | 0hPa | 0V | 00:00:00 | 00:00:00 | 00:00:00 | |
| EA3GEO | 2026-09-02 11:40:29 | 41.23022 | 2.22919 | 165° | 58km/h | 14114m | 3.5m/s | 0°C | 0% | 0hPa | 0V | 00:00:00 | 00:00:00 | 00:00:00 | |
| EA3GEO | 2026-09-02 11:40:23 | 41.23093 | 2.22881 | 158° | 47km/h | 14078m | 10.0m/s | 0°C | 0% | 0hPa | 0V | 00:00:00 | 00:00:00 | 00:00:00 | |
| EA3GEO | 2026-09-02 11:40:18 | 41.23158 | 2.22839 | 155° | 55km/h | 14047m | 8.7m/s | 0°C | 0% | 0hPa | 0V | 00:00:00 | 00:00:00 | 00:00:00 | |
| EA3GEO | 2026-09-02 11:40:12 | 41.23230 | 2.22796 | 150° | 60km/h | 14013m | 2.1m/s | 0°C | 0% | 0hPa | 0V | 00:00:00 | 00:00:00 | 00:00:00 | |
| EA3GEO | 2026-09-02 11:40:07 | 41.23291 | 2.22757 | 152° | 47km/h | 13983m | 5.0m/s | 0°C | 0% | 0hPa | 0V | 00:00:00 | 00:00:00 | 00:00:00 | |
| EA3GEO | 2026-09-02 11:40:02 | 41.23347 | 2.22713 | 158° | 60km/h | 13953m | 3.6m/s | 0°C | 0% | 0hPa | 0V | 00:00:00 | 00:00:00 | 00:00:00 | |
| EA3GEO | 2026-09-02 11:39:57 | 41.23403 | 2.22667 | 143° | 49km/h | 13923m | 2.5m/s | 0°C | 0% | 0hPa | 0V | 00:00:00 | 00:00:00 | 00:00:00 | |
| EA3GEO | 2026-09-02 11:39:51 | 41.23472 | 2.22607 | 141° | 57km/h | 13883m | 6.2m/s | 0°C | 0% | 0hPa | 0V | 00:00:00 | 00:00:00 | 00:00:00 | |
| EA3GEO | 2026-09-02 11:39:45 | 41.23538 | 2.22537 | 149° | 53km/h | 13846m | 6.5m/s | 0°C | 0% | 0hPa | 0V | 00:00:00 | 00:00:00 | 00:00:00 | |
| EA3GEO | 2026-09-02 11:39:40 | 41.23590 | 2.22483 | 133° | 57km/h | 13813m | 3.1m/s | 0°C | 0% | 0hPa | 0V | 00:00:00 | 00:00:00 | 00:00:00 | |
| EA3GEO | 2026-09-02 11:39:35 | 41.23638 | 2.22431 | 154° | 37km/h | 13783m | 5.4m/s | 0°C | 0% | 0hPa | 0V | 00:00:00 | 00:00:00 | 00:00:00 | |
| EA3GEO | 2026-09-02 11:39:29 | 41.23692 | 2.22386 | 147° | 37km/h | 13746m | 1.4m/s | 0°C | 0% | 0hPa | 0V | 00:00:00 | 00:00:00 | 00:00:00 | |
| EA3GEO | 2026-09-02 11:39:24 | 41.23745 | 2.22362 | 157° | 47km/h | 13715m | 1.5m/s | 0°C | 0% | 0hPa | 0V | 00:00:00 | 00:00:00 | 00:00:00 | |
| EA3GEO | 2026-09-02 11:39:19 | 41.23794 | 2.22330 | 167° | 42km/h | 13685m | 7.0m/s | 0°C | 0% | 0hPa | 0V | 00:00:00 | 00:00:00 | 00:00:00 | |
| EA3GEO | 2026-09-02 11:39:13 | 41.23858 | 2.22312 | 166° | 47km/h | 13645m | 10.1m/s | 0°C | 0% | 0hPa | 0V | 00:00:00 | 00:00:00 | 00:00:00 | |
| EA3GEO | 2026-09-02 11:39:07 | 41.23927 | 2.22296 | 172° | 51km/h | 13606m | 3.9m/s | 0°C | 0% | 0hPa | 0V | 00:00:00 | 00:00:00 | 00:00:00 | |
| EA3GEO | 2026-09-02 11:38:56 | 41.24065 | 2.22249 | 164° | 58km/h | 13543m | 3.8m/s | 0°C | 0% | 0hPa | 0V | 00:00:00 | 00:00:00 | 00:00:00 | |
| EA3GEO | 2026-09-02 11:38:51 | 41.24129 | 2.22222 | 169° | 57km/h | 13515m | 3.5m/s | 0°C | 0% | 0hPa | 0V | 00:00:00 | 00:00:00 | 00:00:00 | |
| EA3GEO | 2026-09-02 11:38:45 | 41.24216 | 2.22184 | 157° | 69km/h | 13480m | 2.9m/s | 0°C | 0% | 0hPa | 0V | 00:00:00 | 00:00:00 | 00:00:00 | |
| EA3GEO | 2026-09-02 11:38:39 | 41.24290 | 2.22157 | 148° | 40km/h | 13446m | 6.9m/s | 0°C | 0% | 0hPa | 0V | 00:00:00 | 00:00:00 | 00:00:00 | |
| EA3GEO | 2026-09-02 11:38:33 | 41.24361 | 2.22106 | 172° | 49km/h | 13410m | 7.2m/s | 0°C | 0% | 0hPa | 0V | 00:00:00 | 00:00:00 | 00:00:00 | |
| EA3GEO | 2026-09-02 11:38:27 | 41.24418 | 2.22062 | 137° | 47km/h | 13379m | 5.5m/s | 0°C | 0% | 0hPa | 0V | 00:00:00 | 00:00:00 | 00:00:00 | |
| EA3GEO | 2026-09-02 11:38:22 | 41.24466 | 2.22020 | 143° | 37km/h | 13352m | 5.5m/s | 0°C | 0% | 0hPa | 0V | 00:00:00 | 00:00:00 | 00:00:00 | |
| EA3GEO | 2026-09-02 11:38:16 | 41.24514 | 2.21967 | 136° | 38km/h | 13321m | 5.7m/s | 0°C | 0% | 0hPa | 0V | 00:00:00 | 00:00:00 | 00:00:00 | |
| EA3GEO | 2026-09-02 11:38:11 | 41.24547 | 2.21926 | 146° | 38km/h | 13296m | 3.4m/s | 0°C | 0% | 0hPa | 0V | 00:00:00 | 00:00:00 | 00:00:00 | |
| EA3GEO | 2026-09-02 11:38:06 | 41.24578 | 2.21896 | 138° | 31km/h | 13276m | 5.1m/s | 0°C | 0% | 0hPa | 0V | 00:00:00 | 00:00:00 | 00:00:00 | |
| EA3GEO | 2026-09-02 11:38:00 | 41.24611 | 2.21852 | 165° | 22km/h | 13244m | 4.6m/s | 0°C | 0% | 0hPa | 0V | 00:00:00 | 00:00:00 | 00:00:00 | |
| EA3GEO | 2026-09-02 11:37:54 | 41.24640 | 2.21818 | 143° | 31km/h | 13217m | 4.8m/s | 0°C | 0% | 0hPa | 0V | 00:00:00 | 00:00:00 | 00:00:00 | |
| EA3GEO | 2026-09-02 11:37:48 | 41.24671 | 2.21784 | 134° | 27km/h | 13189m | 4.6m/s | 0°C | 0% | 0hPa | 0V | 00:00:00 | 00:00:00 | 00:00:00 | |
| EA3GEO | 2026-09-02 11:37:43 | 41.24692 | 2.21758 | 131° | 18km/h | 13162m | 6.0m/s | 0°C | 0% | 0hPa | 0V | 00:00:00 | 00:00:00 | 00:00:00 | |
| EA3GEO | 2026-09-02 11:37:37 | 41.24725 | 2.21728 | 147° | 24km/h | 13130m | 4.1m/s | 0°C | 0% | 0hPa | 0V | 00:00:00 | 00:00:00 | 00:00:00 | |
| EA3GEO | 2026-09-02 11:37:32 | 41.24747 | 2.21710 | 137° | 27km/h | 13103m | 4.2m/s | 0°C | 0% | 0hPa | 0V | 00:00:00 | 00:00:00 | 00:00:00 | |
| EA3GEO | 2026-09-02 11:37:26 | 41.24778 | 2.21682 | 178° | 26km/h | 13073m | 6.2m/s | 0°C | 0% | 0hPa | 0V | 00:00:00 | 00:00:00 | 00:00:00 | |
| EA3GEO | 2026-09-02 11:37:20 | 41.24799 | 2.21662 | 153° | 15km/h | 13045m | 6.2m/s | 0°C | 0% | 0hPa | 0V | 00:00:00 | 00:00:00 | 00:00:00 | |
| EA3GEO | 2026-09-02 11:37:14 | 41.24829 | 2.21642 | 153° | 27km/h | 13016m | 4.7m/s | 0°C | 0% | 0hPa | 0V | 00:00:00 | 00:00:00 | 00:00:00 | |
| EA3GEO | 2026-09-02 11:37:09 | 41.24854 | 2.21632 | 151° | 24km/h | 12985m | 5.6m/s | 0°C | 0% | 0hPa | 0V | 00:00:00 | 00:00:00 | 00:00:00 | |
| EA3GEO | 2026-09-02 11:37:02 | 41.24886 | 2.21619 | 163° | 24km/h | 12954m | 7.1m/s | 0°C | 0% | 0hPa | 0V | 00:00:00 | 00:00:00 | 00:00:00 | |
| EA3GEO | 2026-09-02 11:36:57 | 41.24921 | 2.21619 | 194° | 22km/h | 12929m | 6.4m/s | 0°C | 0% | 0hPa | 0V | 00:00:00 | 00:00:00 | 00:00:00 | |
| EA3GEO | 2026-09-02 11:36:51 | 41.24954 | 2.21619 | 197° | 24km/h | 12902m | 6.1m/s | 0°C | 0% | 0hPa | 0V | 00:00:00 | 00:00:00 | 00:00:00 | |
| EA3GEO | 2026-09-02 11:36:45 | 41.25008 | 2.21629 | 199° | 40km/h | 12870m | 6.2m/s | 0°C | 0% | 0hPa | 0V | 00:00:00 | 00:00:00 | 00:00:00 | |
| EA3GEO | 2026-09-02 11:36:40 | 41.25045 | 2.21637 | 215° | 27km/h | 12839m | 5.6m/s | 0°C | 0% | 0hPa | 0V | 00:00:00 | 00:00:00 | 00:00:00 | |
| EA3GEO | 2026-09-02 11:36:34 | 41.25088 | 2.21659 | 189° | 31km/h | 12808m | 7.6m/s | 0°C | 0% | 0hPa | 0V | 00:00:00 | 00:00:00 | 00:00:00 | |
| EA3GEO | 2026-09-02 11:36:28 | 41.25144 | 2.21682 | 188° | 33km/h | 12776m | 7.0m/s | 0°C | 0% | 0hPa | 0V | 00:00:00 | 00:00:00 | 00:00:00 | |
| EA3GEO | 2026-09-02 11:36:22 | 41.25206 | 2.21717 | 202° | 49km/h | 12735m | 5.6m/s | 0°C | 0% | 0hPa | 0V | 00:00:00 | 00:00:00 | 00:00:00 | |
| EA3GEO | 2026-09-02 11:36:17 | 41.25264 | 2.21746 | 204° | 58km/h | 12703m | 5.0m/s | 0°C | 0% | 0hPa | 0V | 00:00:00 | 00:00:00 | 00:00:00 | |
| EA3GEO | 2026-09-02 11:36:11 | 41.25349 | 2.21783 | 201° | 53km/h | 12668m | 3.9m/s | 0°C | 0% | 0hPa | 0V | 00:00:00 | 00:00:00 | 00:00:00 | |
| EA3GEO | 2026-09-02 11:36:05 | 41.25423 | 2.21825 | 191° | 62km/h | 12634m | 3.2m/s | 0°C | 0% | 0hPa | 0V | 00:00:00 | 00:00:00 | 00:00:00 | |
| EA3GEO | 2026-09-02 11:35:59 | 41.25513 | 2.21855 | 203° | 64km/h | 12603m | 10.2m/s | 0°C | 0% | 0hPa | 0V | 00:00:00 | 00:00:00 | 00:00:00 | |
| EA3GEO | 2026-09-02 11:35:54 | 41.25592 | 2.21887 | 195° | 68km/h | 12571m | 4.9m/s | 0°C | 0% | 0hPa | 0V | 00:00:00 | 00:00:00 | 00:00:00 | |
| EA3GEO | 2026-09-02 11:35:48 | 41.25684 | 2.21925 | 199° | 69km/h | 12532m | 8.7m/s | 0°C | 0% | 0hPa | 0V | 00:00:00 | 00:00:00 | 00:00:00 | |
| EA3GEO | 2026-09-02 11:35:43 | 41.25768 | 2.21964 | 198° | 66km/h | 12503m | 7.8m/s | 0°C | 0% | 0hPa | 0V | 00:00:00 | 00:00:00 | 00:00:00 | |
| EA3GEO | 2026-09-02 11:35:38 | 41.25848 | 2.21991 | 192° | 77km/h | 12473m | 7.6m/s | 0°C | 0% | 0hPa | 0V | 00:00:00 | 00:00:00 | 00:00:00 | |
| EA3GEO | 2026-09-02 11:35:31 | 41.25964 | 2.22029 | 192° | 58km/h | 12429m | 9.4m/s | 0°C | 0% | 0hPa | 0V | 00:00:00 | 00:00:00 | 00:00:00 | |
| EA3GEO | 2026-09-02 11:35:25 | 41.26067 | 2.22056 | 191° | 62km/h | 12396m | 8.5m/s | 0°C | 0% | 0hPa | 0V | 00:00:00 | 00:00:00 | 00:00:00 | |
| EA3GEO | 2026-09-02 11:35:20 | 41.26140 | 2.22087 | 200° | 62km/h | 12365m | 10.3m/s | 0°C | 0% | 0hPa | 0V | 00:00:00 | 00:00:00 | 00:00:00 | |
| EA3GEO | 2026-09-02 11:35:14 | 41.26235 | 2.22108 | 197° | 68km/h | 12329m | 8.0m/s | 0°C | 0% | 0hPa | 0V | 00:00:00 | 00:00:00 | 00:00:00 | |
| EA3GEO | 2026-09-02 11:35:05 | 41.26375 | 2.22132 | 196° | 60km/h | 12279m | 2.3m/s | 0°C | 0% | 0hPa | 0V | 00:00:00 | 00:00:00 | 00:00:00 | |
| EA3GEO | 2026-09-02 11:34:59 | 41.26470 | 2.22162 | 191° | 53km/h | 12242m | 5.5m/s | 0°C | 0% | 0hPa | 0V | 00:00:00 | 00:00:00 | 00:00:00 | |
| EA3GEO | 2026-09-02 11:34:54 | 41.26540 | 2.22184 | 190° | 62km/h | 12210m | 3.4m/s | 0°C | 0% | 0hPa | 0V | 00:00:00 | 00:00:00 | 00:00:00 | |
| EA3GEO | 2026-09-02 11:34:48 | 41.26630 | 2.22208 | 201° | 62km/h | 12176m | 3.8m/s | 0°C | 0% | 0hPa | 0V | 00:00:00 | 00:00:00 | 00:00:00 | |
| EA3GEO | 2026-09-02 11:34:42 | 41.26717 | 2.22235 | 188° | 64km/h | 12137m | 8.6m/s | 0°C | 0% | 0hPa | 0V | 00:00:00 | 00:00:00 | 00:00:00 | |
| EA3GEO | 2026-09-02 11:34:36 | 41.26805 | 2.22262 | 193° | 57km/h | 12104m | 4.4m/s | 0°C | 0% | 0hPa | 0V | 00:00:00 | 00:00:00 | 00:00:00 | |
| EA3GEO | 2026-09-02 11:34:30 | 41.26884 | 2.22290 | 205° | 60km/h | 12070m | 3.8m/s | 0°C | 0% | 0hPa | 0V | 00:00:00 | 00:00:00 | 00:00:00 | |
| EA3GEO | 2026-09-02 11:34:24 | 41.26966 | 2.22329 | 200° | 51km/h | 12035m | 4.1m/s | 0°C | 0% | 0hPa | 0V | 00:00:00 | 00:00:00 | 00:00:00 | |
| EA3GEO | 2026-09-02 11:34:18 | 41.27049 | 2.22371 | 199° | 58km/h | 11997m | 3.2m/s | 0°C | 0% | 0hPa | 0V | 00:00:00 | 00:00:00 | 00:00:00 | |
| EA3GEO | 2026-09-02 11:34:13 | 41.27123 | 2.22415 | 203° | 57km/h | 11958m | 4.7m/s | 0°C | 0% | 0hPa | 0V | 00:00:00 | 00:00:00 | 00:00:00 | |
| EA3GEO | 2026-09-02 11:34:06 | 41.27205 | 2.22457 | 208° | 51km/h | 11924m | 12.1m/s | 0°C | 0% | 0hPa | 0V | 00:00:00 | 00:00:00 | 00:00:00 | |
| EA3GEO | 2026-09-02 11:34:00 | 41.27282 | 2.22500 | 205° | 49km/h | 11886m | 8.3m/s | 0°C | 0% | 0hPa | 0V | 00:00:00 | 00:00:00 | 00:00:00 | |
| EA3GEO | 2026-09-02 11:33:54 | 41.27357 | 2.22551 | 204° | 55km/h | 11851m | 9.5m/s | 0°C | 0% | 0hPa | 0V | 00:00:00 | 00:00:00 | 00:00:00 | |
| EA3GEO | 2026-09-02 11:33:48 | 41.27434 | 2.22592 | 209° | 53km/h | 11811m | 7.1m/s | 0°C | 0% | 0hPa | 0V | 00:00:00 | 00:00:00 | 00:00:00 | |
| EA3GEO | 2026-09-02 11:33:43 | 41.27494 | 2.22634 | 205° | 51km/h | 11784m | 2.0m/s | 0°C | 0% | 0hPa | 0V | 00:00:00 | 00:00:00 | 00:00:00 | |
| EA3GEO | 2026-09-02 11:33:38 | 41.27557 | 2.22673 | 204° | 53km/h | 11752m | 4.4m/s | 0°C | 0% | 0hPa | 0V | 00:00:00 | 00:00:00 | 00:00:00 | |
| EA3GEO | 2026-09-02 11:33:33 | 41.27616 | 2.22705 | 203° | 58km/h | 11725m | 10.0m/s | 0°C | 0% | 0hPa | 0V | 00:00:00 | 00:00:00 | 00:00:00 | |
| EA3GEO | 2026-09-02 11:33:27 | 41.27694 | 2.22748 | 211° | 47km/h | 11688m | 6.3m/s | 0°C | 0% | 0hPa | 0V | 00:00:00 | 00:00:00 | 00:00:00 | |
| EA3GEO | 2026-09-02 11:33:22 | 41.27755 | 2.22785 | 209° | 51km/h | 11660m | 5.9m/s | 0°C | 0% | 0hPa | 0V | 00:00:00 | 00:00:00 | 00:00:00 | |
| EA3GEO | 2026-09-02 11:33:17 | 41.27819 | 2.22818 | 204° | 53km/h | 11627m | 2.1m/s | 0°C | 0% | 0hPa | 0V | 00:00:00 | 00:00:00 | 00:00:00 | |
| EA3GEO | 2026-09-02 11:33:11 | 41.27905 | 2.22880 | 212° | 53km/h | 11584m | 9.4m/s | 0°C | 0% | 0hPa | 0V | 00:00:00 | 00:00:00 | 00:00:00 | |
| EA3GEO | 2026-09-02 11:33:04 | 41.27982 | 2.22923 | 209° | 58km/h | 11548m | 6.3m/s | 0°C | 0% | 0hPa | 0V | 00:00:00 | 00:00:00 | 00:00:00 | |
| EA3GEO | 2026-09-02 11:32:59 | 41.28036 | 2.22964 | 201° | 44km/h | 11516m | 6.2m/s | 0°C | 0% | 0hPa | 0V | 00:00:00 | 00:00:00 | 00:00:00 | |
| EA3GEO | 2026-09-02 11:32:54 | 41.28101 | 2.22998 | 203° | 60km/h | 11486m | 3.9m/s | 0°C | 0% | 0hPa | 0V | 00:00:00 | 00:00:00 | 00:00:00 | |
| EA3GEO | 2026-09-02 11:32:49 | 41.28169 | 2.23036 | 195° | 53km/h | 11448m | 7.9m/s | 0°C | 0% | 0hPa | 0V | 00:00:00 | 00:00:00 | 00:00:00 | |
| EA3GEO | 2026-09-02 11:32:42 | 41.28248 | 2.23082 | 206° | 51km/h | 11412m | 2.2m/s | 0°C | 0% | 0hPa | 0V | 00:00:00 | 00:00:00 | 00:00:00 | |
| EA3GEO | 2026-09-02 11:32:36 | 41.28321 | 2.23124 | 197° | 53km/h | 11379m | 4.2m/s | 0°C | 0% | 0hPa | 0V | 00:00:00 | 00:00:00 | 00:00:00 | |
| EA3GEO | 2026-09-02 11:32:30 | 41.28395 | 2.23167 | 197° | 57km/h | 11339m | 4.4m/s | 0°C | 0% | 0hPa | 0V | 00:00:00 | 00:00:00 | 00:00:00 | |
| EA3GEO | 2026-09-02 11:32:25 | 41.28458 | 2.23192 | 203° | 57km/h | 11313m | 10.5m/s | 0°C | 0% | 0hPa | 0V | 00:00:00 | 00:00:00 | 00:00:00 | |
| EA3GEO | 2026-09-02 11:32:19 | 41.28537 | 2.23236 | 207° | 57km/h | 11277m | 12.1m/s | 0°C | 0% | 0hPa | 0V | 00:00:00 | 00:00:00 | 00:00:00 | |
| EA3GEO | 2026-09-02 11:32:13 | 41.28620 | 2.23279 | 207° | 51km/h | 11239m | 11.8m/s | 0°C | 0% | 0hPa | 0V | 00:00:00 | 00:00:00 | 00:00:00 | |
| EA3GEO | 2026-09-02 11:32:07 | 41.28702 | 2.23319 | 203° | 62km/h | 11201m | 10.1m/s | 0°C | 0% | 0hPa | 0V | 00:00:00 | 00:00:00 | 00:00:00 | |
| EA3GEO | 2026-09-02 11:32:02 | 41.28770 | 2.23345 | 205° | 55km/h | 11169m | 3.1m/s | 0°C | 0% | 0hPa | 0V | 00:00:00 | 00:00:00 | 00:00:00 | |
| EA3GEO | 2026-09-02 11:31:56 | 41.28848 | 2.23388 | 195° | 57km/h | 11130m | 1.1m/s | 0°C | 0% | 0hPa | 0V | 00:00:00 | 00:00:00 | 00:00:00 | |
| EA3GEO | 2026-09-02 11:31:51 | 41.28914 | 2.23421 | 199° | 55km/h | 11101m | 6.0m/s | 0°C | 0% | 0hPa | 0V | 00:00:00 | 00:00:00 | 00:00:00 | |
| EA3GEO | 2026-09-02 11:31:46 | 41.29000 | 2.23445 | 200° | 60km/h | 11063m | 4.9m/s | 0°C | 0% | 0hPa | 0V | 00:00:00 | 00:00:00 | 00:00:00 | |
| EA3GEO | 2026-09-02 11:31:40 | 41.29065 | 2.23475 | 194° | 55km/h | 11031m | 4.0m/s | 0°C | 0% | 0hPa | 0V | 00:00:00 | 00:00:00 | 00:00:00 | |
| EA3GEO | 2026-09-02 11:31:35 | 41.29129 | 2.23500 | 193° | 51km/h | 11000m | 12.2m/s | 0°C | 0% | 0hPa | 0V | 00:00:00 | 00:00:00 | 00:00:00 | |
| EA3GEO | 2026-09-02 11:31:29 | 41.29206 | 2.23534 | 201° | 53km/h | 10959m | 2.5m/s | 0°C | 0% | 0hPa | 0V | 00:00:00 | 00:00:00 | 00:00:00 | |
| EA3GEO | 2026-09-02 11:31:25 | 41.29268 | 2.23560 | 194° | 49km/h | 10930m | 9.1m/s | 0°C | 0% | 0hPa | 0V | 00:00:00 | 00:00:00 | 00:00:00 | |
| EA3GEO | 2026-09-02 11:31:19 | 41.29332 | 2.23589 | 196° | 60km/h | 10900m | 6.6m/s | 0°C | 0% | 0hPa | 0V | 00:00:00 | 00:00:00 | 00:00:00 | |
| EA3GEO | 2026-09-02 11:31:13 | 41.29410 | 2.23628 | 199° | 60km/h | 10861m | 3.4m/s | 0°C | 0% | 0hPa | 0V | 00:00:00 | 00:00:00 | 00:00:00 | |
| EA3GEO | 2026-09-02 11:31:07 | 41.29494 | 2.23663 | 201° | 60km/h | 10828m | 8.6m/s | 0°C | 0% | 0hPa | 0V | 00:00:00 | 00:00:00 | 00:00:00 | |
| EA3GEO | 2026-09-02 11:31:01 | 41.29577 | 2.23700 | 197° | 62km/h | 10792m | 2.2m/s | 0°C | 0% | 0hPa | 0V | 00:00:00 | 00:00:00 | 00:00:00 | |
| EA3GEO | 2026-09-02 11:30:55 | 41.29661 | 2.23737 | 197° | 57km/h | 10755m | 9.6m/s | 0°C | 0% | 0hPa | 0V | 00:00:00 | 00:00:00 | 00:00:00 | |
| EA3GEO | 2026-09-02 11:30:49 | 41.29747 | 2.23777 | 202° | 58km/h | 10717m | 3.8m/s | 0°C | 0% | 0hPa | 0V | 00:00:00 | 00:00:00 | 00:00:00 | |
| EA3GEO | 2026-09-02 11:30:45 | 41.29820 | 2.23810 | 198° | 57km/h | 10689m | 10.2m/s | 0°C | 0% | 0hPa | 0V | 00:00:00 | 00:00:00 | 00:00:00 | |
| EA3GEO | 2026-09-02 11:30:38 | 41.29899 | 2.23847 | 203° | 58km/h | 10651m | 4.3m/s | 0°C | 0% | 0hPa | 0V | 00:00:00 | 00:00:00 | 00:00:00 | |
| EA3GEO | 2026-09-02 11:30:32 | 41.29989 | 2.23890 | 208° | 60km/h | 10612m | 7.3m/s | 0°C | 0% | 0hPa | 0V | 00:00:00 | 00:00:00 | 00:00:00 | |
| EA3GEO | 2026-09-02 11:30:27 | 41.30067 | 2.23928 | 195° | 69km/h | 10582m | 7.4m/s | 0°C | 0% | 0hPa | 0V | 00:00:00 | 00:00:00 | 00:00:00 | |
| EA3GEO | 2026-09-02 11:30:22 | 41.30141 | 2.23962 | 204° | 69km/h | 10555m | 6.0m/s | 0°C | 0% | 0hPa | 0V | 00:00:00 | 00:00:00 | 00:00:00 | |
| EA3GEO | 2026-09-02 11:30:17 | 41.30214 | 2.23990 | 196° | 57km/h | 10523m | 7.1m/s | 0°C | 0% | 0hPa | 0V | 00:00:00 | 00:00:00 | 00:00:00 | |
| EA3GEO | 2026-09-02 11:30:13 | 41.30290 | 2.24025 | 202° | 66km/h | 10492m | 2.5m/s | 0°C | 0% | 0hPa | 0V | 00:00:00 | 00:00:00 | 00:00:00 | |
| EA3GEO | 2026-09-02 11:30:06 | 41.30381 | 2.24067 | 202° | 62km/h | 10455m | 6.8m/s | 0°C | 0% | 0hPa | 0V | 00:00:00 | 00:00:00 | 00:00:00 | |
| EA3GEO | 2026-09-02 11:30:00 | 41.30468 | 2.24114 | 204° | 57km/h | 10419m | 4.3m/s | 0°C | 0% | 0hPa | 0V | 00:00:00 | 00:00:00 | 00:00:00 | |
| EA3GEO | 2026-09-02 11:29:55 | 41.30542 | 2.24150 | 208° | 62km/h | 10393m | 2.8m/s | 0°C | 0% | 0hPa | 0V | 00:00:00 | 00:00:00 | 00:00:00 | |
| EA3GEO | 2026-09-02 11:29:48 | 41.30645 | 2.24209 | 206° | 62km/h | 10348m | 8.0m/s | 0°C | 0% | 0hPa | 0V | 00:00:00 | 00:00:00 | 00:00:00 | |
| EA3GEO | 2026-09-02 11:29:43 | 41.30710 | 2.24241 | 197° | 55km/h | 10318m | 2.5m/s | 0°C | 0% | 0hPa | 0V | 00:00:00 | 00:00:00 | 00:00:00 | |
| EA3GEO | 2026-09-02 11:29:37 | 41.30798 | 2.24284 | 204° | 53km/h | 10279m | 4.2m/s | 0°C | 0% | 0hPa | 0V | 00:00:00 | 00:00:00 | 00:00:00 | |
| EA3GEO | 2026-09-02 11:29:31 | 41.30882 | 2.24327 | 204° | 64km/h | 10238m | 8.6m/s | 0°C | 0% | 0hPa | 0V | 00:00:00 | 00:00:00 | 00:00:00 | |
| EA3GEO | 2026-09-02 11:29:26 | 41.30954 | 2.24364 | 204° | 66km/h | 10209m | 11.4m/s | 0°C | 0% | 0hPa | 0V | 00:00:00 | 00:00:00 | 00:00:00 | |
| EA3GEO | 2026-09-02 11:29:21 | 41.31025 | 2.24397 | 199° | 60km/h | 10176m | 7.7m/s | 0°C | 0% | 0hPa | 0V | 00:00:00 | 00:00:00 | 00:00:00 | |
| EA3GEO | 2026-09-02 11:29:15 | 41.31109 | 2.24437 | 206° | 62km/h | 10134m | 2.5m/s | 0°C | 0% | 0hPa | 0V | 00:00:00 | 00:00:00 | 00:00:00 | |
| EA3GEO | 2026-09-02 11:29:10 | 41.31180 | 2.24466 | 191° | 58km/h | 10107m | 3.8m/s | 0°C | 0% | 0hPa | 0V | 00:00:00 | 00:00:00 | 00:00:00 | |
| EA3GEO | 2026-09-02 11:28:57 | 41.31364 | 2.24534 | 206° | 57km/h | 10030m | 5.0m/s | 0°C | 0% | 0hPa | 0V | 00:00:00 | 00:00:00 | 00:00:00 | |
| EA3GEO | 2026-09-02 11:28:51 | 41.31445 | 2.24567 | 191° | 57km/h | 9986m | 9.4m/s | 0°C | 0% | 0hPa | 0V | 00:00:00 | 00:00:00 | 00:00:00 | |
| EA3GEO | 2026-09-02 11:28:46 | 41.31521 | 2.24599 | 202° | 58km/h | 9953m | 7.3m/s | 0°C | 0% | 0hPa | 0V | 00:00:00 | 00:00:00 | 00:00:00 | |
| EA3GEO | 2026-09-02 11:28:39 | 41.31601 | 2.24636 | 197° | 46km/h | 9911m | 6.5m/s | 0°C | 0% | 0hPa | 0V | 00:00:00 | 00:00:00 | 00:00:00 | |
| EA3GEO | 2026-09-02 11:28:33 | 41.31671 | 2.24666 | 204° | 62km/h | 9880m | 4.9m/s | 0°C | 0% | 0hPa | 0V | 00:00:00 | 00:00:00 | 00:00:00 | |
| EA3GEO | 2026-09-02 11:28:27 | 41.31753 | 2.24699 | 198° | 55km/h | 9837m | 7.6m/s | 0°C | 0% | 0hPa | 0V | 00:00:00 | 00:00:00 | 00:00:00 | |
| EA3GEO | 2026-09-02 11:28:21 | 41.31827 | 2.24725 | 195° | 55km/h | 9804m | 4.0m/s | 0°C | 0% | 0hPa | 0V | 00:00:00 | 00:00:00 | 00:00:00 | |
| EA3GEO | 2026-09-02 11:17:08 | 41.37686 | 2.21042 | 122° | 31km/h | 5906m | 3.8m/s | 0°C | 0% | 0hPa | 0V | 00:00:00 | 00:00:00 | 00:00:00 | |
| EA3GEO | 2026-09-02 11:16:24 | 41.37866 | 2.20415 | 112° | 49km/h | 5640m | 9.4m/s | 0°C | 0% | 0hPa | 0V | 00:00:00 | 00:00:00 | 00:00:00 | |
| EA3GEO | 2026-09-02 11:15:57 | 41.37974 | 2.19968 | 106° | 51km/h | 5472m | 5.7m/s | 0°C | 0% | 0hPa | 0V | 00:00:00 | 00:00:00 | 00:00:00 | |
| EA3GEO | 2026-09-02 11:15:51 | 41.38001 | 2.19863 | 94° | 64km/h | 5444m | 4.3m/s | 0°C | 0% | 0hPa | 0V | 00:00:00 | 00:00:00 | 00:00:00 | |
| EA3GEO | 2026-09-02 11:15:38 | 41.38056 | 2.19651 | 111° | 62km/h | 5374m | 2.1m/s | 0°C | 0% | 0hPa | 0V | 00:00:00 | 00:00:00 | 00:00:00 | |
| EA3GEO | 2026-09-02 11:15:32 | 41.38084 | 2.19566 | 109° | 31km/h | 5336m | 5.2m/s | 0°C | 0% | 0hPa | 0V | 00:00:00 | 00:00:00 | 00:00:00 | |
| EA3GEO | 2026-09-02 11:15:11 | 41.38168 | 2.19282 | 109° | 57km/h | 5215m | 4.2m/s | 0°C | 0% | 0hPa | 0V | 00:00:00 | 00:00:00 | 00:00:00 | |
| EA3GEO | 2026-09-02 11:14:54 | 41.38198 | 2.19038 | 102° | 33km/h | 5122m | 5.0m/s | 0°C | 0% | 0hPa | 0V | 00:00:00 | 00:00:00 | 00:00:00 | |
| EA3GEO | 2026-09-02 11:14:42 | 41.38236 | 2.18860 | 89° | 53km/h | 5050m | 3.2m/s | 0°C | 0% | 0hPa | 0V | 00:00:00 | 00:00:00 | 00:00:00 | |
| EA3GEO | 2026-09-02 11:14:36 | 41.38234 | 2.18766 | 92° | 37km/h | 5013m | 8.2m/s | 0°C | 0% | 0hPa | 0V | 00:00:00 | 00:00:00 | 00:00:00 | |
| EA3GEO | 2026-09-02 11:14:30 | 41.38234 | 2.18669 | 87° | 60km/h | 4981m | 2.7m/s | 0°C | 0% | 0hPa | 0V | 00:00:00 | 00:00:00 | 00:00:00 | |
| EA3GEO | 2026-09-02 11:14:21 | 41.38240 | 2.18511 | 98° | 57km/h | 4933m | 6.5m/s | 0°C | 0% | 0hPa | 0V | 00:00:00 | 00:00:00 | 00:00:00 | |
| EA3GEO | 2026-09-02 11:14:16 | 41.38235 | 2.18423 | 93° | 46km/h | 4910m | 3.9m/s | 0°C | 0% | 0hPa | 0V | 00:00:00 | 00:00:00 | 00:00:00 | |
| EA3GEO | 2026-09-02 11:14:08 | 41.38245 | 2.18289 | 121° | 44km/h | 4858m | 4.8m/s | 0°C | 0% | 0hPa | 0V | 00:00:00 | 00:00:00 | 00:00:00 | |
| EA3GEO | 2026-09-02 11:14:02 | 41.38262 | 2.18189 | 93° | 46km/h | 4821m | 6.0m/s | 0°C | 0% | 0hPa | 0V | 00:00:00 | 00:00:00 | 00:00:00 | |
| EA3GEO | 2026-09-02 11:13:55 | 41.38276 | 2.18093 | 105° | 55km/h | 4784m | 7.0m/s | 0°C | 0% | 0hPa | 0V | 00:00:00 | 00:00:00 | 00:00:00 | |
| EA3GEO | 2026-09-02 11:13:49 | 41.38293 | 2.18015 | 111° | 38km/h | 4754m | 3.7m/s | 0°C | 0% | 0hPa | 0V | 00:00:00 | 00:00:00 | 00:00:00 | |
| EA3GEO | 2026-09-02 11:13:43 | 41.38308 | 2.17926 | 91° | 44km/h | 4711m | 6.7m/s | 0°C | 0% | 0hPa | 0V | 00:00:00 | 00:00:00 | 00:00:00 | |
| EA3GEO | 2026-09-02 11:13:38 | 41.38327 | 2.17854 | 119° | 51km/h | 4686m | 4.0m/s | 0°C | 0% | 0hPa | 0V | 00:00:00 | 00:00:00 | 00:00:00 | |
| EA3GEO | 2026-09-02 11:13:33 | 41.38338 | 2.17790 | 96° | 47km/h | 4652m | 4.5m/s | 0°C | 0% | 0hPa | 0V | 00:00:00 | 00:00:00 | 00:00:00 | |
| EA3GEO | 2026-09-02 11:13:27 | 41.38352 | 2.17674 | 91° | 51km/h | 4623m | 5.4m/s | 0°C | 0% | 0hPa | 0V | 00:00:00 | 00:00:00 | 00:00:00 | |
| EA3GEO | 2026-09-02 11:13:19 | 41.38370 | 2.17542 | 93° | 37km/h | 4573m | 6.9m/s | 0°C | 0% | 0hPa | 0V | 00:00:00 | 00:00:00 | 00:00:00 | |
| EA3GEO | 2026-09-02 11:13:13 | 41.38373 | 2.17478 | 87° | 35km/h | 4530m | 6.3m/s | 0°C | 0% | 0hPa | 0V | 00:00:00 | 00:00:00 | 00:00:00 | |
| EA3GEO | 2026-09-02 11:13:06 | 41.38367 | 2.17375 | 95° | 33km/h | 4476m | 7.1m/s | 0°C | 0% | 0hPa | 0V | 00:00:00 | 00:00:00 | 00:00:00 | |
| EA3GEO | 2026-09-02 11:13:01 | 41.38376 | 2.17315 | 116° | 47km/h | 4450m | 7.2m/s | 0°C | 0% | 0hPa | 0V | 00:00:00 | 00:00:00 | 00:00:00 | |
| EA3GEO | 2026-09-02 11:12:54 | 41.38386 | 2.17199 | 93° | 47km/h | 4411m | 5.0m/s | 0°C | 0% | 0hPa | 0V | 00:00:00 | 00:00:00 | 00:00:00 | |
| EA3GEO | 2026-09-02 11:12:48 | 41.38396 | 2.17095 | 101° | 53km/h | 4387m | 3.8m/s | 0°C | 0% | 0hPa | 0V | 00:00:00 | 00:00:00 | 00:00:00 | |
| EA3GEO | 2026-09-02 11:12:42 | 41.38397 | 2.16977 | 102° | 46km/h | 4358m | 6.3m/s | 0°C | 0% | 0hPa | 0V | 00:00:00 | 00:00:00 | 00:00:00 | |
| EA3GEO | 2026-09-02 11:12:36 | 41.38403 | 2.16894 | 78° | 46km/h | 4326m | 6.5m/s | 0°C | 0% | 0hPa | 0V | 00:00:00 | 00:00:00 | 00:00:00 | |
| EA3GEO | 2026-09-02 11:12:30 | 41.38404 | 2.16798 | 97° | 40km/h | 4294m | 2.5m/s | 0°C | 0% | 0hPa | 0V | 00:00:00 | 00:00:00 | 00:00:00 | |
| EA3GEO | 2026-09-02 11:12:24 | 41.38410 | 2.16697 | 81° | 60km/h | 4262m | 6.0m/s | 0°C | 0% | 0hPa | 0V | 00:00:00 | 00:00:00 | 00:00:00 | |
| EA3GEO | 2026-09-02 11:12:18 | 41.38398 | 2.16593 | 86° | 60km/h | 4228m | 6.7m/s | 0°C | 0% | 0hPa | 0V | 00:00:00 | 00:00:00 | 00:00:00 | |
| EA3GEO | 2026-09-02 11:12:13 | 41.38395 | 2.16496 | 91° | 40km/h | 4196m | 6.5m/s | 0°C | 0% | 0hPa | 0V | 00:00:00 | 00:00:00 | 00:00:00 | |
| EA3GEO | 2026-09-02 11:12:07 | 41.38405 | 2.16395 | 92° | 71km/h | 4167m | 5.7m/s | 0°C | 0% | 0hPa | 0V | 00:00:00 | 00:00:00 | 00:00:00 | |
| EA3GEO | 2026-09-02 11:12:00 | 41.38421 | 2.16258 | 93° | 62km/h | 4126m | 5.7m/s | 0°C | 0% | 0hPa | 0V | 00:00:00 | 00:00:00 | 00:00:00 | |
| EA3GEO | 2026-09-02 11:11:54 | 41.38420 | 2.16136 | 92° | 57km/h | 4096m | 3.3m/s | 0°C | 0% | 0hPa | 0V | 00:00:00 | 00:00:00 | 00:00:00 | |
| EA3GEO | 2026-09-02 11:11:49 | 41.38422 | 2.16050 | 104° | 44km/h | 4063m | 4.5m/s | 0°C | 0% | 0hPa | 0V | 00:00:00 | 00:00:00 | 00:00:00 | |
| EA3GEO | 2026-09-02 11:11:43 | 41.38415 | 2.15953 | 96° | 55km/h | 4018m | 6.7m/s | 0°C | 0% | 0hPa | 0V | 00:00:00 | 00:00:00 | 00:00:00 | |
| EA3GEO | 2026-09-02 11:11:37 | 41.38420 | 2.15842 | 82° | 47km/h | 3991m | 2.9m/s | 0°C | 0% | 0hPa | 0V | 00:00:00 | 00:00:00 | 00:00:00 | |
| EA3GEO | 2026-09-02 11:11:32 | 41.38410 | 2.15782 | 102° | 29km/h | 3973m | 4.4m/s | 0°C | 0% | 0hPa | 0V | 00:00:00 | 00:00:00 | 00:00:00 | |
| EA3GEO | 2026-09-02 11:11:26 | 41.38403 | 2.15694 | 66° | 53km/h | 3938m | 3.8m/s | 0°C | 0% | 0hPa | 0V | 00:00:00 | 00:00:00 | 00:00:00 | |
| EA3GEO | 2026-09-02 11:11:21 | 41.38396 | 2.15621 | 101° | 46km/h | 3912m | 7.2m/s | 0°C | 0% | 0hPa | 0V | 00:00:00 | 00:00:00 | 00:00:00 | |
| EA3GEO | 2026-09-02 11:11:15 | 41.38395 | 2.15542 | 81° | 47km/h | 3876m | 5.3m/s | 0°C | 0% | 0hPa | 0V | 00:00:00 | 00:00:00 | 00:00:00 | |
| EA3GEO | 2026-09-02 11:11:08 | 41.38372 | 2.15429 | 83° | 44km/h | 3846m | 3.6m/s | 0°C | 0% | 0hPa | 0V | 00:00:00 | 00:00:00 | 00:00:00 | |
| EA3GEO | 2026-09-02 11:11:03 | 41.38369 | 2.15360 | 90° | 42km/h | 3814m | 5.6m/s | 0°C | 0% | 0hPa | 0V | 00:00:00 | 00:00:00 | 00:00:00 | |
| EA3GEO | 2026-09-02 11:10:56 | 41.38371 | 2.15233 | 98° | 49km/h | 3770m | 4.6m/s | 0°C | 0% | 0hPa | 0V | 00:00:00 | 00:00:00 | 00:00:00 | |
| EA3GEO | 2026-09-02 11:10:51 | 41.38373 | 2.15140 | 84° | 51km/h | 3744m | 5.1m/s | 0°C | 0% | 0hPa | 0V | 00:00:00 | 00:00:00 | 00:00:00 | |
| EA3GEO | 2026-09-02 11:10:47 | 41.38357 | 2.15063 | 76° | 57km/h | 3720m | 3.4m/s | 0°C | 0% | 0hPa | 0V | 00:00:00 | 00:00:00 | 00:00:00 | |
| EA3GEO | 2026-09-02 11:10:40 | 41.38346 | 2.14949 | 83° | 57km/h | 3687m | 4.7m/s | 0°C | 0% | 0hPa | 0V | 00:00:00 | 00:00:00 | 00:00:00 | |
| EA3GEO | 2026-09-02 11:10:34 | 41.38327 | 2.14846 | 74° | 55km/h | 3653m | 7.3m/s | 0°C | 0% | 0hPa | 0V | 00:00:00 | 00:00:00 | 00:00:00 | |
| EA3GEO | 2026-09-02 11:10:28 | 41.38334 | 2.14746 | 101° | 58km/h | 3623m | 3.9m/s | 0°C | 0% | 0hPa | 0V | 00:00:00 | 00:00:00 | 00:00:00 | |
| EA3GEO | 2026-09-02 11:10:22 | 41.38333 | 2.14648 | 98° | 46km/h | 3586m | 6.8m/s | 0°C | 0% | 0hPa | 0V | 00:00:00 | 00:00:00 | 00:00:00 | |
| EA3GEO | 2026-09-02 11:10:16 | 41.38340 | 2.14534 | 89° | 47km/h | 3555m | 4.9m/s | 0°C | 0% | 0hPa | 0V | 00:00:00 | 00:00:00 | 00:00:00 | |
| EA3GEO | 2026-09-02 11:10:10 | 41.38351 | 2.14432 | 102° | 53km/h | 3521m | 4.4m/s | 0°C | 0% | 0hPa | 0V | 00:00:00 | 00:00:00 | 00:00:00 | |
| EA3GEO | 2026-09-02 11:10:05 | 41.38344 | 2.14339 | 74° | 57km/h | 3494m | 6.2m/s | 0°C | 0% | 0hPa | 0V | 00:00:00 | 00:00:00 | 00:00:00 | |
| EA3GEO | 2026-09-02 11:09:59 | 41.38327 | 2.14236 | 72° | 55km/h | 3460m | 3.9m/s | 0°C | 0% | 0hPa | 0V | 00:00:00 | 00:00:00 | 00:00:00 | |
| EA3GEO | 2026-09-02 11:09:54 | 41.38322 | 2.14163 | 109° | 60km/h | 3435m | 3.6m/s | 0°C | 0% | 0hPa | 0V | 00:00:00 | 00:00:00 | 00:00:00 | |
| EA3GEO | 2026-09-02 11:09:48 | 41.38340 | 2.14053 | 99° | 33km/h | 3402m | 2.9m/s | 0°C | 0% | 0hPa | 0V | 00:00:00 | 00:00:00 | 00:00:00 | |
| EA3GEO | 2026-09-02 11:09:42 | 41.38349 | 2.13966 | 103° | 53km/h | 3372m | 4.7m/s | 0°C | 0% | 0hPa | 0V | 00:00:00 | 00:00:00 | 00:00:00 | |
| EA3GEO | 2026-09-02 11:09:36 | 41.38345 | 2.13851 | 85° | 55km/h | 3348m | 3.8m/s | 0°C | 0% | 0hPa | 0V | 00:00:00 | 00:00:00 | 00:00:00 | |
| EA3GEO | 2026-09-02 11:09:30 | 41.38362 | 2.13756 | 104° | 55km/h | 3318m | 5.1m/s | 0°C | 0% | 0hPa | 0V | 00:00:00 | 00:00:00 | 00:00:00 | |
| EA3GEO | 2026-09-02 11:09:24 | 41.38376 | 2.13637 | 98° | 68km/h | 3288m | 4.0m/s | 0°C | 0% | 0hPa | 0V | 00:00:00 | 00:00:00 | 00:00:00 | |
| EA3GEO | 2026-09-02 11:09:19 | 41.38374 | 2.13539 | 85° | 55km/h | 3263m | 6.7m/s | 0°C | 0% | 0hPa | 0V | 00:00:00 | 00:00:00 | 00:00:00 | |
| EA3GEO | 2026-09-02 11:09:13 | 41.38368 | 2.13433 | 91° | 53km/h | 3234m | 4.4m/s | 0°C | 0% | 0hPa | 0V | 00:00:00 | 00:00:00 | 00:00:00 | |
| EA3GEO | 2026-09-02 11:09:08 | 41.38373 | 2.13364 | 87° | 40km/h | 3209m | 3.2m/s | 0°C | 0% | 0hPa | 0V | 00:00:00 | 00:00:00 | 00:00:00 | |
| EA3GEO | 2026-09-02 11:09:02 | 41.38388 | 2.13266 | 108° | 53km/h | 3174m | 5.7m/s | 0°C | 0% | 0hPa | 0V | 00:00:00 | 00:00:00 | 00:00:00 | |
| EA3GEO | 2026-09-02 11:08:57 | 41.38407 | 2.13188 | 117° | 44km/h | 3146m | 4.9m/s | 0°C | 0% | 0hPa | 0V | 00:00:00 | 00:00:00 | 00:00:00 | |
| EA3GEO | 2026-09-02 11:08:51 | 41.38411 | 2.13105 | 99° | 55km/h | 3119m | 5.1m/s | 0°C | 0% | 0hPa | 0V | 00:00:00 | 00:00:00 | 00:00:00 | |
| EA3GEO | 2026-09-02 11:08:45 | 41.38433 | 2.13008 | 119° | 37km/h | 3089m | 4.5m/s | 0°C | 0% | 0hPa | 0V | 00:00:00 | 00:00:00 | 00:00:00 | |
| EA3GEO | 2026-09-02 11:08:39 | 41.38451 | 2.12932 | 96° | 37km/h | 3059m | 5.0m/s | 0°C | 0% | 0hPa | 0V | 00:00:00 | 00:00:00 | 00:00:00 | |
| EA3GEO | 2026-09-02 11:08:34 | 41.38458 | 2.12869 | 97° | 44km/h | 3028m | 3.9m/s | 0°C | 0% | 0hPa | 0V | 00:00:00 | 00:00:00 | 00:00:00 | |
| EA3GEO | 2026-09-02 11:08:28 | 41.38473 | 2.12808 | 106° | 26km/h | 2984m | 6.4m/s | 0°C | 0% | 0hPa | 0V | 00:00:00 | 00:00:00 | 00:00:00 | |
| EA3GEO | 2026-09-02 11:08:23 | 41.38469 | 2.12740 | 99° | 38km/h | 2956m | 3.6m/s | 0°C | 0% | 0hPa | 0V | 00:00:00 | 00:00:00 | 00:00:00 | |
| EA3GEO | 2026-09-02 11:08:17 | 41.38479 | 2.12686 | 86° | 22km/h | 2920m | 3.2m/s | 0°C | 0% | 0hPa | 0V | 00:00:00 | 00:00:00 | 00:00:00 | |
| EA3GEO | 2026-09-02 11:08:11 | 41.38482 | 2.12635 | 91° | 20km/h | 2885m | 1.6m/s | 0°C | 0% | 0hPa | 0V | 00:00:00 | 00:00:00 | 00:00:00 | |
| EA3GEO | 2026-09-02 11:08:06 | 41.38480 | 2.12594 | 76° | 37km/h | 2856m | 7.2m/s | 0°C | 0% | 0hPa | 0V | 00:00:00 | 00:00:00 | 00:00:00 | |
| EA3GEO | 2026-09-02 11:08:01 | 41.38467 | 2.12537 | 71° | 31km/h | 2832m | 3.8m/s | 0°C | 0% | 0hPa | 0V | 00:00:00 | 00:00:00 | 00:00:00 | |
| EA3GEO | 2026-09-02 11:07:55 | 41.38474 | 2.12471 | 97° | 38km/h | 2801m | 5.6m/s | 0°C | 0% | 0hPa | 0V | 00:00:00 | 00:00:00 | 00:00:00 | |
| EA3GEO | 2026-09-02 11:07:49 | 41.38470 | 2.12411 | 108° | 35km/h | 2768m | 3.8m/s | 0°C | 0% | 0hPa | 0V | 00:00:00 | 00:00:00 | 00:00:00 | |
| EA3GEO | 2026-09-02 11:07:43 | 41.38465 | 2.12356 | 82° | 38km/h | 2737m | 4.2m/s | 0°C | 0% | 0hPa | 0V | 00:00:00 | 00:00:00 | 00:00:00 | |
| EA3GEO | 2026-09-02 11:07:37 | 41.38470 | 2.12286 | 87° | 35km/h | 2701m | 6.5m/s | 0°C | 0% | 0hPa | 0V | 00:00:00 | 00:00:00 | 00:00:00 | |
| EA3GEO | 2026-09-02 11:07:31 | 41.38469 | 2.12235 | 67° | 29km/h | 2669m | 4.1m/s | 0°C | 0% | 0hPa | 0V | 00:00:00 | 00:00:00 | 00:00:00 | |
| EA3GEO | 2026-09-02 11:07:26 | 41.38470 | 2.12183 | 121° | 20km/h | 2642m | 5.0m/s | 0°C | 0% | 0hPa | 0V | 00:00:00 | 00:00:00 | 00:00:00 | |
| EA3GEO | 2026-09-02 11:07:21 | 41.38483 | 2.12145 | 117° | 26km/h | 2612m | 5.2m/s | 0°C | 0% | 0hPa | 0V | 00:00:00 | 00:00:00 | 00:00:00 | |
| EA3GEO | 2026-09-02 11:07:15 | 41.38477 | 2.12091 | 90° | 35km/h | 2580m | 5.6m/s | 0°C | 0% | 0hPa | 0V | 00:00:00 | 00:00:00 | 00:00:00 | |
| EA3GEO | 2026-09-02 11:07:09 | 41.38472 | 2.12028 | 120° | 15km/h | 2546m | 4.0m/s | 0°C | 0% | 0hPa | 0V | 00:00:00 | 00:00:00 | 00:00:00 | |
| EA3GEO | 2026-09-02 11:07:04 | 41.38468 | 2.12000 | 73° | 33km/h | 2520m | 4.7m/s | 0°C | 0% | 0hPa | 0V | 00:00:00 | 00:00:00 | 00:00:00 | |
| EA3GEO | 2026-09-02 11:06:58 | 41.38475 | 2.11940 | 128° | 18km/h | 2486m | 4.1m/s | 0°C | 0% | 0hPa | 0V | 00:00:00 | 00:00:00 | 00:00:00 | |
| EA3GEO | 2026-09-02 11:06:52 | 41.38472 | 2.11896 | 108° | 22km/h | 2453m | 4.0m/s | 0°C | 0% | 0hPa | 0V | 00:00:00 | 00:00:00 | 00:00:00 | |
| EA3GEO | 2026-09-02 11:06:46 | 41.38488 | 2.11827 | 103° | 29km/h | 2416m | 5.9m/s | 0°C | 0% | 0hPa | 0V | 00:00:00 | 00:00:00 | 00:00:00 | |
| EA3GEO | 2026-09-02 11:06:40 | 41.38482 | 2.11772 | 98° | 40km/h | 2380m | 5.2m/s | 0°C | 0% | 0hPa | 0V | 00:00:00 | 00:00:00 | 00:00:00 | |
| EA3GEO | 2026-09-02 11:06:35 | 41.38482 | 2.11734 | 69° | 22km/h | 2353m | 5.2m/s | 0°C | 0% | 0hPa | 0V | 00:00:00 | 00:00:00 | 00:00:00 | |
| EA3GEO | 2026-09-02 11:06:30 | 41.38482 | 2.11697 | 78° | 27km/h | 2324m | 4.1m/s | 0°C | 0% | 0hPa | 0V | 00:00:00 | 00:00:00 | 00:00:00 | |
| EA3GEO | 2026-09-02 11:06:23 | 41.38481 | 2.11625 | 73° | 33km/h | 2286m | 4.8m/s | 0°C | 0% | 0hPa | 0V | 00:00:00 | 00:00:00 | 00:00:00 | |
| EA3GEO | 2026-09-02 11:06:18 | 41.38482 | 2.11570 | 106° | 24km/h | 2256m | 3.8m/s | 0°C | 0% | 0hPa | 0V | 00:00:00 | 00:00:00 | 00:00:00 | |
| EA3GEO | 2026-09-02 11:06:12 | 41.38487 | 2.11510 | 104° | 24km/h | 2222m | 4.4m/s | 0°C | 0% | 0hPa | 0V | 00:00:00 | 00:00:00 | 00:00:00 | |
| EA3GEO | 2026-09-02 11:06:07 | 41.38480 | 2.11466 | 83° | 27km/h | 2193m | 5.4m/s | 0°C | 0% | 0hPa | 0V | 00:00:00 | 00:00:00 | 00:00:00 | |
| EA3GEO | 2026-09-02 11:06:02 | 41.38476 | 2.11413 | 100° | 38km/h | 2155m | 7.5m/s | 0°C | 0% | 0hPa | 0V | 00:00:00 | 00:00:00 | 00:00:00 | |
| EA3GEO | 2026-09-02 11:05:56 | 41.38476 | 2.11344 | 83° | 16km/h | 2117m | 5.2m/s | 0°C | 0% | 0hPa | 0V | 00:00:00 | 00:00:00 | 00:00:00 | |
| EA3GEO | 2026-09-02 11:05:50 | 41.38482 | 2.11301 | 86° | 37km/h | 2080m | 2.1m/s | 0°C | 0% | 0hPa | 0V | 00:00:00 | 00:00:00 | 00:00:00 | |
| EA3GEO | 2026-09-02 11:05:43 | 41.38492 | 2.11231 | 91° | 27km/h | 2033m | 5.0m/s | 0°C | 0% | 0hPa | 0V | 00:00:00 | 00:00:00 | 00:00:00 | |
| EA3GEO | 2026-09-02 11:05:37 | 41.38500 | 2.11176 | 96° | 24km/h | 2000m | 5.8m/s | 0°C | 0% | 0hPa | 0V | 00:00:00 | 00:00:00 | 00:00:00 | |
| EA3GEO | 2026-09-02 11:05:32 | 41.38506 | 2.11132 | 109° | 15km/h | 1971m | 5.5m/s | 0°C | 0% | 0hPa | 0V | 00:00:00 | 00:00:00 | 00:00:00 | |
| EA3GEO | 2026-09-02 11:05:26 | 41.38499 | 2.11079 | 89° | 35km/h | 1941m | 6.6m/s | 0°C | 0% | 0hPa | 0V | 00:00:00 | 00:00:00 | 00:00:00 | |
| EA3GEO | 2026-09-02 11:05:20 | 41.38501 | 2.11023 | 118° | 26km/h | 1905m | 6.3m/s | 0°C | 0% | 0hPa | 0V | 00:00:00 | 00:00:00 | 00:00:00 | |
| EA3GEO | 2026-09-02 11:05:15 | 41.38510 | 2.10989 | 112° | 35km/h | 1878m | 5.0m/s | 0°C | 0% | 0hPa | 0V | 00:00:00 | 00:00:00 | 00:00:00 | |
| EA3GEO | 2026-09-02 11:05:09 | 41.38516 | 2.10953 | 77° | 15km/h | 1843m | 4.3m/s | 0°C | 0% | 0hPa | 0V | 00:00:00 | 00:00:00 | 00:00:00 | |
| EA3GEO | 2026-09-02 11:05:03 | 41.38530 | 2.10925 | 107° | 4km/h | 1811m | 4.2m/s | 0°C | 0% | 0hPa | 0V | 00:00:00 | 00:00:00 | 00:00:00 | |
| EA3GEO | 2026-09-02 11:04:58 | 41.38545 | 2.10892 | 114° | 22km/h | 1782m | 5.4m/s | 0°C | 0% | 0hPa | 0V | 00:00:00 | 00:00:00 | 00:00:00 | |
| EA3GEO | 2026-09-02 11:04:52 | 41.38546 | 2.10848 | 108° | 27km/h | 1747m | 5.6m/s | 0°C | 0% | 0hPa | 0V | 00:00:00 | 00:00:00 | 00:00:00 | |
| EA3GEO | 2026-09-02 11:04:46 | 41.38556 | 2.10813 | 73° | 16km/h | 1713m | 5.0m/s | 0°C | 0% | 0hPa | 0V | 00:00:00 | 00:00:00 | 00:00:00 | |
| EA3GEO | 2026-09-02 11:04:40 | 41.38563 | 2.10796 | 97° | 9km/h | 1680m | 6.2m/s | 0°C | 0% | 0hPa | 0V | 00:00:00 | 00:00:00 | 00:00:00 | |
| EA3GEO | 2026-09-02 11:04:34 | 41.38569 | 2.10769 | 84° | 26km/h | 1645m | 6.3m/s | 0°C | 0% | 0hPa | 0V | 00:00:00 | 00:00:00 | 00:00:00 | |
| EA3GEO | 2026-09-02 11:04:28 | 41.38564 | 2.10738 | 60° | 13km/h | 1609m | 6.0m/s | 0°C | 0% | 0hPa | 0V | 00:00:00 | 00:00:00 | 00:00:00 | |
| EA3GEO | 2026-09-02 11:04:23 | 41.38577 | 2.10719 | 118° | 16km/h | 1583m | 6.1m/s | 0°C | 0% | 0hPa | 0V | 00:00:00 | 00:00:00 | 00:00:00 | |
| EA3GEO | 2026-09-02 11:04:17 | 41.38569 | 2.10684 | 83° | 31km/h | 1550m | 4.9m/s | 0°C | 0% | 0hPa | 0V | 00:00:00 | 00:00:00 | 00:00:00 | |
| EA3GEO | 2026-09-02 11:04:11 | 41.38579 | 2.10640 | 106° | 18km/h | 1515m | 5.8m/s | 0°C | 0% | 0hPa | 0V | 00:00:00 | 00:00:00 | 00:00:00 | |
| EA3GEO | 2026-09-02 11:04:05 | 41.38585 | 2.10614 | 119° | 20km/h | 1478m | 4.3m/s | 0°C | 0% | 0hPa | 0V | 00:00:00 | 00:00:00 | 00:00:00 | |
| EA3GEO | 2026-09-02 11:04:00 | 41.38590 | 2.10598 | 125° | 13km/h | 1451m | 5.7m/s | 0°C | 0% | 0hPa | 0V | 00:00:00 | 00:00:00 | 00:00:00 | |
| EA3GEO | 2026-09-02 11:03:54 | 41.38599 | 2.10578 | 139° | 15km/h | 1416m | 5.5m/s | 0°C | 0% | 0hPa | 0V | 00:00:00 | 00:00:00 | 00:00:00 | |
| EA3GEO | 2026-09-02 11:03:48 | 41.38602 | 2.10574 | 145° | 7km/h | 1384m | 4.5m/s | 0°C | 0% | 0hPa | 0V | 00:00:00 | 00:00:00 | 00:00:00 | |
| EA3GEO | 2026-09-02 11:03:43 | 41.38606 | 2.10570 | 186° | 9km/h | 1354m | 7.1m/s | 0°C | 0% | 0hPa | 0V | 00:00:00 | 00:00:00 | 00:00:00 | |
| EA3GEO | 2026-09-02 11:03:37 | 41.38614 | 2.10571 | 151° | 11km/h | 1319m | 5.0m/s | 0°C | 0% | 0hPa | 0V | 00:00:00 | 00:00:00 | 00:00:00 | |
| EA3GEO | 2026-09-02 11:03:31 | 41.38604 | 2.10571 | 291° | 7km/h | 1286m | 4.2m/s | 0°C | 0% | 0hPa | 0V | 00:00:00 | 00:00:00 | 00:00:00 | |
| EA3GEO | 2026-09-02 11:03:25 | 41.38622 | 2.10585 | 264° | 15km/h | 1254m | 3.1m/s | 0°C | 0% | 0hPa | 0V | 00:00:00 | 00:00:00 | 00:00:00 | |
| EA3GEO | 2026-09-02 11:03:19 | 41.38620 | 2.10602 | 256° | 11km/h | 1219m | 7.2m/s | 0°C | 0% | 0hPa | 0V | 00:00:00 | 00:00:00 | 00:00:00 | |
| EA3GEO | 2026-09-02 11:03:13 | 41.38623 | 2.10628 | 267° | 7km/h | 1183m | 5.2m/s | 0°C | 0% | 0hPa | 0V | 00:00:00 | 00:00:00 | 00:00:00 | |
| EA3GEO | 2026-09-02 11:03:08 | 41.38626 | 2.10650 | 256° | 11km/h | 1155m | 4.3m/s | 0°C | 0% | 0hPa | 0V | 00:00:00 | 00:00:00 | 00:00:00 | |
| EA3GEO | 2026-09-02 11:03:02 | 41.38631 | 2.10676 | 325° | 13km/h | 1119m | 4.3m/s | 0°C | 0% | 0hPa | 0V | 00:00:00 | 00:00:00 | 00:00:00 | |
| EA3GEO | 2026-09-02 11:02:56 | 41.38626 | 2.10699 | 272° | 15km/h | 1086m | 6.5m/s | 0°C | 0% | 0hPa | 0V | 00:00:00 | 00:00:00 | 00:00:00 | |
| EA3GEO | 2026-09-02 11:02:50 | 41.38626 | 2.10730 | 299° | 18km/h | 1050m | 4.3m/s | 0°C | 0% | 0hPa | 0V | 00:00:00 | 00:00:00 | 00:00:00 | |
| EA3GEO | 2026-09-02 11:02:44 | 41.38627 | 2.10764 | 283° | 20km/h | 1019m | 6.0m/s | 0°C | 0% | 0hPa | 0V | 00:00:00 | 00:00:00 | 00:00:00 | |
| EA3GEO | 2026-09-02 11:02:39 | 41.38625 | 2.10794 | 295° | 20km/h | 990m | 4.5m/s | 0°C | 0% | 0hPa | 0V | 00:00:00 | 00:00:00 | 00:00:00 | |
| EA3GEO | 2026-09-02 11:02:33 | 41.38618 | 2.10829 | 281° | 24km/h | 953m | 6.0m/s | 0°C | 0% | 0hPa | 0V | 00:00:00 | 00:00:00 | 00:00:00 | |
| EA3GEO | 2026-09-02 11:02:28 | 41.38622 | 2.10859 | 259° | 27km/h | 925m | 6.0m/s | 0°C | 0% | 0hPa | 0V | 00:00:00 | 00:00:00 | 00:00:00 | |
| EA3GEO | 2026-09-02 11:02:23 | 41.38627 | 2.10895 | 247° | 26km/h | 896m | 6.1m/s | 0°C | 0% | 0hPa | 0V | 00:00:00 | 00:00:00 | 00:00:00 | |
| EA3GEO | 2026-09-02 11:02:17 | 41.38619 | 2.10937 | 299° | 24km/h | 865m | 7.0m/s | 0°C | 0% | 0hPa | 0V | 00:00:00 | 00:00:00 | 00:00:00 | |
| EA3GEO | 2026-09-02 11:02:06 | 41.38613 | 2.11026 | 277° | 27km/h | 795m | 5.4m/s | 0°C | 0% | 0hPa | 0V | 00:00:00 | 00:00:00 | 00:00:00 | |
| EA3GEO | 2026-09-02 11:01:59 | 41.38616 | 2.11092 | 249° | 27km/h | 753m | 2.3m/s | 0°C | 0% | 0hPa | 0V | 00:00:00 | 00:00:00 | 00:00:00 | |
| EA3GEO | 2026-09-02 11:01:52 | 41.38623 | 2.11140 | 268° | 27km/h | 712m | 5.9m/s | 0°C | 0% | 0hPa | 0V | 00:00:00 | 00:00:00 | 00:00:00 | |
| EA3GEO | 2026-09-02 11:01:46 | 41.38612 | 2.11192 | 290° | 29km/h | 676m | 7.6m/s | 0°C | 0% | 0hPa | 0V | 00:00:00 | 00:00:00 | 00:00:00 | |
| EA3GEO | 2026-09-02 11:01:35 | 41.38589 | 2.11286 | 299° | 37km/h | 608m | 4.2m/s | 0°C | 0% | 0hPa | 0V | 00:00:00 | 00:00:00 | 00:00:00 | |
| EA3GEO | 2026-09-02 11:01:28 | 41.38571 | 2.11347 | 275° | 26km/h | 566m | 5.9m/s | 0°C | 0% | 0hPa | 0V | 00:00:00 | 00:00:00 | 00:00:00 | |
| EA3GEO | 2026-09-02 11:01:13 | 41.38542 | 2.11464 | 307° | 16km/h | 471m | 4.4m/s | 0°C | 0% | 0hPa | 0V | 00:00:00 | 00:00:00 | 00:00:00 |